Observation data for Truscott on 05/24/2020      Previous  Date  Next       Current Mesonet Observations  Soil Data  Daily Summary Page  Observations in Plain Language
KTR1 240500Z 08010KT 18/16 A2984 RMK A01 T01840162  RH  087%=      5-min Rain = 0
KTR1 240501Z 09011KT 19/16 A2984 RMK A01 T01850163  RH  087%=      5-min Rain = 0
KTR1 240502Z 08012KT 18/16 A2984 RMK A01 T01840161  RH  086%=      5-min Rain = 0
KTR1 240503Z 08013KT 19/16 A2983 RMK A01 T01860158  RH  084%=      5-min Rain = 0
KTR1 240504Z 08012KT 19/16 A2983 RMK A01 T01870157  RH  083%=      5-min Rain = 0
KTR1 240505Z 07011KT 19/16 A2983 RMK A01 T01880157  RH  082%=      5-min Rain = 0
KTR1 240506Z 08011KT 19/16 A2983 RMK A01 T01880157  RH  082%=      5-min Rain = 0
KTR1 240507Z 07010KT 19/16 A2983 RMK A01 T01880157  RH  082%=      5-min Rain = 0
KTR1 240508Z 07011KT 19/16 A2983 RMK A01 T01890157  RH  082%=      5-min Rain = 0.01
KTR1 240509Z 07011KT 19/16 A2983 RMK A01 T01890156  RH  081%=      5-min Rain = 0
KTR1 240510Z 07012KT 19/16 A2983 RMK A01 T01900157  RH  081%=      5-min Rain = 0
KTR1 240511Z 07012KT 19/16 A2983 RMK A01 T01900156  RH  081%=      5-min Rain = 0
KTR1 240512Z 06012KT 19/16 A2982 RMK A01 T01900157  RH  081%=      5-min Rain = 0
KTR1 240513Z 07012KT 19/16 A2982 RMK A01 T01890157  RH  082%=      5-min Rain = 0
KTR1 240514Z 06011KT 19/16 A2982 RMK A01 T01890158  RH  082%=      5-min Rain = 0
KTR1 240515Z 07012KT 19/16 A2982 RMK A01 T01890157  RH  082%=      5-min Rain = 0
KTR1 240516Z 07013KT 19/16 A2982 RMK A01 T01890158  RH  082%=      5-min Rain = 0
KTR1 240517Z 07013KT 19/16 A2982 RMK A01 T01890157  RH  082%=      5-min Rain = 0
KTR1 240518Z 08012KT 19/16 A2981 RMK A01 T01880158  RH  083%=      5-min Rain = 0
KTR1 240519Z 08014KT 19/16 A2981 RMK A01 T01880158  RH  083%=      5-min Rain = 0
KTR1 240520Z 08014KT 19/16 A2981 RMK A01 T01870158  RH  083%=      5-min Rain = 0
KTR1 240521Z 09014KT 19/16 A2981 RMK A01 T01870159  RH  084%=      5-min Rain = 0
KTR1 240522Z 09013KT 19/16 A2981 RMK A01 T01870159  RH  084%=      5-min Rain = 0
KTR1 240523Z 09012KT 19/16 A2981 RMK A01 T01870160  RH  084%=      5-min Rain = 0
KTR1 240524Z 08011KT 19/16 A2981 RMK A01 T01860159  RH  084%=      5-min Rain = 0
KTR1 240525Z 09012KT 19/16 A2981 RMK A01 T01860161  RH  085%=      5-min Rain = 0
KTR1 240526Z 09014KT 19/16 A2981 RMK A01 T01850161  RH  086%=      5-min Rain = 0
KTR1 240527Z 09016KT 19/16 A2981 RMK A01 T01860158  RH  084%=      5-min Rain = 0
KTR1 240528Z 08016KT 19/16 A2981 RMK A01 T01880155  RH  081%=      5-min Rain = 0
KTR1 240529Z 08017KT 19/15 A2981 RMK A01 T01910151  RH  078%=      5-min Rain = 0
KTR1 240530Z 08016KT 19/15 A298 RMK A01 T01940151  RH  076%=      5-min Rain = 0
KTR1 240531Z 07018KT 20/15 A298 RMK A01 T01960149  RH  075%=      5-min Rain = 0
KTR1 240532Z 07015KT 20/15 A298 RMK A01 T01970150  RH  075%=      5-min Rain = 0
KTR1 240533Z 07015KT 20/15 A298 RMK A01 T01970149  RH  074%=      5-min Rain = 0
KTR1 240534Z 07016KT 20/15 A298 RMK A01 T01970150  RH  074%=      5-min Rain = 0
KTR1 240535Z 07017KT 20/15 A298 RMK A01 T01960149  RH  074%=      5-min Rain = 0
KTR1 240536Z 07016KT 20/15 A298 RMK A01 T01960149  RH  074%=      5-min Rain = 0
KTR1 240537Z 07016KT 20/15 A2979 RMK A01 T01960149  RH  074%=      5-min Rain = 0
KTR1 240538Z 07017KT 20/15 A2979 RMK A01 T01960150  RH  075%=      5-min Rain = 0
KTR1 240539Z 07017KT 20/15 A2979 RMK A01 T01960149  RH  074%=      5-min Rain = 0
KTR1 240540Z 07017KT 20/15 A2979 RMK A01 T01970149  RH  074%=      5-min Rain = 0
KTR1 240541Z 07017KT 20/15 A2979 RMK A01 T01970148  RH  073%=      5-min Rain = 0
KTR1 240542Z 08016KT 20/15 A2979 RMK A01 T01980150  RH  074%=      5-min Rain = 0
KTR1 240543Z 08016KT 20/15 A2978 RMK A01 T01970151  RH  074%=      5-min Rain = 0
KTR1 240544Z 07017KT 20/15 A2978 RMK A01 T01960151  RH  075%=      5-min Rain = 0
KTR1 240545Z 08015KT 20/15 A2978 RMK A01 T01960152  RH  076%=      5-min Rain = 0
KTR1 240546Z 08016KT 20/15 A2978 RMK A01 T01950152  RH  076%=      5-min Rain = 0
KTR1 240547Z 07014KT 19/15 A2978 RMK A01 T01940153  RH  077%=      5-min Rain = 0
KTR1 240548Z 07014KT 19/15 A2978 RMK A01 T01940152  RH  077%=      5-min Rain = 0
KTR1 240549Z 07013KT 19/15 A2978 RMK A01 T01940154  RH  077%=      5-min Rain = 0
KTR1 240550Z 06013KT 19/15 A2978 RMK A01 T01930154  RH  078%=      5-min Rain = 0
KTR1 240551Z 06014KT 19/15 A2978 RMK A01 T01930153  RH  077%=      5-min Rain = 0
KTR1 240552Z 06013KT 19/15 A2978 RMK A01 T01930151  RH  077%=      5-min Rain = 0
KTR1 240553Z 06014KT 19/15 A2978 RMK A01 T01930153  RH  077%=      5-min Rain = 0
KTR1 240554Z 06013KT 19/15 A2978 RMK A01 T01940152  RH  077%=      5-min Rain = 0
KTR1 240555Z 06012KT 19/15 A2978 RMK A01 T01940152  RH  077%=      5-min Rain = 0
KTR1 240556Z 06012G17KT 19/15 A2978 RMK A01 T01940152  RH  077%=      5-min Rain = 0
KTR1 240557Z 07013G19KT 19/15 A2978 RMK A01 T01940150  RH  076%=      5-min Rain = 0
KTR1 240558Z 07014KT 20/15 A2977 RMK A01 T01950150  RH  075%=      5-min Rain = 0
KTR1 240559Z 06013KT 20/15 A2977 RMK A01 T01960150  RH  075%=      5-min Rain = 0
KTR1 240600Z 06013KT 20/15 A2978 RMK A01 T01960149  RH  074%=      5-min Rain = 0
KTR1 240601Z 06013KT 20/15 A2978 RMK A01 T01970148  RH  074%=      5-min Rain = 0
KTR1 240602Z 06013KT 20/15 A2978 RMK A01 T01970149  RH  074%=      5-min Rain = 0
KTR1 240603Z 06012KT 20/15 A2978 RMK A01 T01970149  RH  074%=      5-min Rain = 0
KTR1 240604Z 06013KT 20/15 A2978 RMK A01 T01970148  RH  073%=      5-min Rain = 0
KTR1 240605Z 06014KT 20/15 A2978 RMK A01 T01970147  RH  072%=      5-min Rain = 0
KTR1 240606Z 07013KT 20/15 A2978 RMK A01 T01990147  RH  072%=      5-min Rain = 0
KTR1 240607Z 07012KT 20/15 A2978 RMK A01 T01990148  RH  072%=      5-min Rain = 0
KTR1 240608Z 07011KT 20/15 A2978 RMK A01 T01990149  RH  073%=      5-min Rain = 0
KTR1 240609Z 07011KT 20/15 A2978 RMK A01 T01990148  RH  073%=      5-min Rain = 0
KTR1 240610Z 07010KT 20/15 A2978 RMK A01 T01980149  RH  073%=      5-min Rain = 0
KTR1 240611Z 07013KT 20/15 A2978 RMK A01 T01980149  RH  073%=      5-min Rain = 0
KTR1 240612Z 07011KT 20/15 A2977 RMK A01 T01980149  RH  073%=      5-min Rain = 0
KTR1 240613Z 07012KT 20/15 A2977 RMK A01 T01980149  RH  073%=      5-min Rain = 0
KTR1 240614Z 07012KT 20/15 A2977 RMK A01 T01980148  RH  073%=      5-min Rain = 0
KTR1 240615Z 07013KT 20/15 A2977 RMK A01 T01980147  RH  072%=      5-min Rain = 0
KTR1 240616Z 06012KT 20/15 A2977 RMK A01 T01980146  RH  072%=      5-min Rain = 0
KTR1 240617Z 06012KT 20/15 A2977 RMK A01 T01990146  RH  071%=      5-min Rain = 0
KTR1 240618Z 07012KT 20/15 A2977 RMK A01 T02000147  RH  071%=      5-min Rain = 0
KTR1 240619Z 08011KT 20/15 A2977 RMK A01 T01990146  RH  071%=      5-min Rain = 0
KTR1 240620Z 08012KT 20/15 A2977 RMK A01 T01990147  RH  072%=      5-min Rain = 0
KTR1 240621Z 08011KT 20/15 A2977 RMK A01 T02000147  RH  072%=      5-min Rain = 0
KTR1 240622Z 08012KT 20/15 A2977 RMK A01 T02000146  RH  071%=      5-min Rain = 0
KTR1 240623Z 08012KT 20/15 A2977 RMK A01 T01990145  RH  071%=      5-min Rain = 0
KTR1 240624Z 08010KT 20/15 A2977 RMK A01 T02000147  RH  072%=      5-min Rain = 0
KTR1 240625Z 08010KT 20/15 A2977 RMK A01 T01990147  RH  072%=      5-min Rain = 0
KTR1 240626Z 08010KT 20/15 A2977 RMK A01 T01990147  RH  072%=      5-min Rain = 0
KTR1 240627Z 08009KT 20/15 A2977 RMK A01 T01990147  RH  072%=      5-min Rain = 0
KTR1 240628Z 08011KT 20/15 A2977 RMK A01 T01980147  RH  072%=      5-min Rain = 0
KTR1 240629Z 08010KT 20/15 A2977 RMK A01 T01980146  RH  072%=      5-min Rain = 0
KTR1 240630Z 08011KT 20/15 A2977 RMK A01 T01990146  RH  072%=      5-min Rain = 0
KTR1 240631Z 08010KT 20/15 A2977 RMK A01 T01990146  RH  072%=      5-min Rain = 0
KTR1 240632Z 09010KT 20/15 A2977 RMK A01 T01990147  RH  072%=      5-min Rain = 0
KTR1 240633Z 09009KT 20/15 A2977 RMK A01 T01980146  RH  072%=      5-min Rain = 0
KTR1 240634Z 09008KT 20/15 A2977 RMK A01 T01990147  RH  072%=      5-min Rain = 0
KTR1 240635Z 09009KT 20/15 A2977 RMK A01 T01980147  RH  072%=      5-min Rain = 0
KTR1 240636Z 08009KT 20/15 A2977 RMK A01 T01980146  RH  072%=      5-min Rain = 0
KTR1 240637Z 08009KT 20/15 A2977 RMK A01 T01980146  RH  072%=      5-min Rain = 0
KTR1 240638Z 08008KT 20/15 A2977 RMK A01 T01990146  RH  072%=      5-min Rain = 0
KTR1 240639Z 09008KT 20/15 A2977 RMK A01 T01990146  RH  071%=      5-min Rain = 0
KTR1 240640Z 09009KT 20/15 A2977 RMK A01 T01990146  RH  071%=      5-min Rain = 0
KTR1 240641Z 08008KT 20/15 A2977 RMK A01 T02000145  RH  071%=      5-min Rain = 0
KTR1 240642Z 08007KT 20/15 A2977 RMK A01 T02000145  RH  071%=      5-min Rain = 0
KTR1 240643Z 08008KT 20/15 A2977 RMK A01 T02000146  RH  071%=      5-min Rain = 0
KTR1 240644Z 07009KT 20/15 A2977 RMK A01 T02010145  RH  070%=      5-min Rain = 0
KTR1 240645Z 07010KT 20/15 A2977 RMK A01 T02010145  RH  070%=      5-min Rain = 0
KTR1 240646Z 07011KT 20/14 A2977 RMK A01 T02020144  RH  069%=      5-min Rain = 0
KTR1 240647Z 07010KT 20/14 A2976 RMK A01 T02020143  RH  069%=      5-min Rain = 0
KTR1 240648Z 07010KT 20/15 A2976 RMK A01 T02030145  RH  069%=      5-min Rain = 0
KTR1 240649Z 07009KT 20/15 A2976 RMK A01 T02030145  RH  069%=      5-min Rain = 0
KTR1 240650Z 06009KT 20/15 A2976 RMK A01 T02030145  RH  069%=      5-min Rain = 0
KTR1 240651Z 06009KT 20/15 A2976 RMK A01 T02020145  RH  070%=      5-min Rain = 0
KTR1 240652Z 06009KT 20/15 A2976 RMK A01 T02020145  RH  070%=      5-min Rain = 0
KTR1 240653Z 06009KT 20/14 A2976 RMK A01 T02020144  RH  069%=      5-min Rain = 0
KTR1 240654Z 06008KT 20/15 A2976 RMK A01 T02020145  RH  070%=      5-min Rain = 0
KTR1 240655Z 06009KT 20/15 A2976 RMK A01 T02020145  RH  070%=      5-min Rain = 0
KTR1 240656Z 07007KT 20/15 A2976 RMK A01 T02020146  RH  070%=      5-min Rain = 0
KTR1 240657Z 07007KT 20/15 A2976 RMK A01 T02010146  RH  070%=      5-min Rain = 0
KTR1 240658Z 08007KT 20/15 A2976 RMK A01 T02010146  RH  070%=      5-min Rain = 0
KTR1 240659Z 09008KT 20/15 A2976 RMK A01 T02010147  RH  071%=      5-min Rain = 0
KTR1 240700Z 10009KT 20/15 A2977 RMK A01 T02000147  RH  072%=      5-min Rain = 0
KTR1 240701Z 10009KT 20/15 A2977 RMK A01 T02000147  RH  071%=      5-min Rain = 0
KTR1 240702Z 10008KT 20/15 A2977 RMK A01 T02000146  RH  071%=      5-min Rain = 0
KTR1 240703Z 11008KT 20/15 A2977 RMK A01 T02000146  RH  071%=      5-min Rain = 0
KTR1 240704Z 13011KT 20/15 A2978 RMK A01 T02000147  RH  071%=      5-min Rain = 0
KTR1 240705Z 14011KT 20/15 A2979 RMK A01 T01990149  RH  072%=      5-min Rain = 0
KTR1 240706Z 13007KT 20/15 A2978 RMK A01 T01980149  RH  073%=      5-min Rain = 0
KTR1 240707Z 10004KT 20/15 A2978 RMK A01 T01970149  RH  074%=      5-min Rain = 0
KTR1 240708Z 12006KT 20/15 A2978 RMK A01 T01970148  RH  073%=      5-min Rain = 0
KTR1 240709Z 13010KT 20/15 A2979 RMK A01 T01970150  RH  074%=      5-min Rain = 0
KTR1 240710Z 13013KT 20/15 A2979 RMK A01 T01960150  RH  075%=      5-min Rain = 0
KTR1 240711Z 13008KT 20/15 A2978 RMK A01 T01960149  RH  074%=      5-min Rain = 0
KTR1 240712Z 13008KT 20/15 A2978 RMK A01 T01950150  RH  075%=      5-min Rain = 0
KTR1 240713Z 13009KT 19/15 A2979 RMK A01 T01940150  RH  076%=      5-min Rain = 0
KTR1 240714Z 12010KT 19/15 A2979 RMK A01 T01930150  RH  076%=      5-min Rain = 0
KTR1 240715Z 12010KT 19/15 A2978 RMK A01 T01930147  RH  075%=      5-min Rain = 0
KTR1 240716Z 13009KT 19/15 A2979 RMK A01 T01940149  RH  076%=      5-min Rain = 0
KTR1 240717Z 13006KT 19/15 A2979 RMK A01 T01930151  RH  076%=      5-min Rain = 0
KTR1 240718Z 14007KT 19/15 A2979 RMK A01 T01920150  RH  077%=      5-min Rain = 0
KTR1 240719Z 15009KT 19/15 A2979 RMK A01 T01920152  RH  078%=      5-min Rain = 0
KTR1 240720Z 14010KT 19/15 A2979 RMK A01 T01910153  RH  078%=      5-min Rain = 0
KTR1 240721Z 13008KT 19/15 A2979 RMK A01 T01900152  RH  078%=      5-min Rain = 0
KTR1 240722Z 14008KT 19/15 A2978 RMK A01 T01900152  RH  079%=      5-min Rain = 0
KTR1 240723Z 15009KT 19/15 A2979 RMK A01 T01890153  RH  079%=      5-min Rain = 0
KTR1 240724Z 16009KT 19/15 A2979 RMK A01 T01890152  RH  079%=      5-min Rain = 0
KTR1 240725Z 16009KT 19/15 A2979 RMK A01 T01890154  RH  080%=      5-min Rain = 0
KTR1 240726Z 16008KT 19/15 A2979 RMK A01 T01880154  RH  081%=      5-min Rain = 0
KTR1 240727Z 16006KT 19/15 A2978 RMK A01 T01870154  RH  081%=      5-min Rain = 0
KTR1 240728Z 16007KT 19/16 A2978 RMK A01 T01870155  RH  081%=      5-min Rain = 0
KTR1 240729Z 15009KT 19/16 A2979 RMK A01 T01860156  RH  082%=      5-min Rain = 0
KTR1 240730Z 16008KT 19/16 A2979 RMK A01 T01850156  RH  083%=      5-min Rain = 0
KTR1 240731Z 16008KT 19/16 A2979 RMK A01 T01850155  RH  083%=      5-min Rain = 0
KTR1 240732Z 17009KT 19/16 A2979 RMK A01 T01850155  RH  083%=      5-min Rain = 0
KTR1 240733Z 16008KT 19/15 A2979 RMK A01 T01850154  RH  082%=      5-min Rain = 0
KTR1 240734Z 16007KT 19/15 A2979 RMK A01 T01850154  RH  082%=      5-min Rain = 0
KTR1 240735Z 17006KT 19/16 A2979 RMK A01 T01850155  RH  083%=      5-min Rain = 0
KTR1 240736Z 16006KT 19/16 A2979 RMK A01 T01850155  RH  083%=      5-min Rain = 0
KTR1 240737Z 16005KT 18/16 A2979 RMK A01 T01840155  RH  083%=      5-min Rain = 0
KTR1 240738Z 17005KT 18/16 A2979 RMK A01 T01840155  RH  083%=      5-min Rain = 0
KTR1 240739Z 18006KT 19/16 A2979 RMK A01 T01850156  RH  083%=      5-min Rain = 0
KTR1 240740Z 19006KT 18/16 A2979 RMK A01 T01840156  RH  084%=      5-min Rain = 0
KTR1 240741Z 19006KT 18/16 A2979 RMK A01 T01830156  RH  084%=      5-min Rain = 0
KTR1 240742Z 19005KT 18/16 A2979 RMK A01 T01830156  RH  084%=      5-min Rain = 0
KTR1 240743Z 18005KT 18/16 A2979 RMK A01 T01820157  RH  085%=      5-min Rain = 0
KTR1 240744Z 18003KT 18/16 A2979 RMK A01 T01820156  RH  085%=      5-min Rain = 0
KTR1 240745Z 16003KT 18/16 A2979 RMK A01 T01820156  RH  085%=      5-min Rain = 0
KTR1 240746Z 18004KT 18/16 A2979 RMK A01 T01820155  RH  085%=      5-min Rain = 0
KTR1 240747Z 17005KT 18/16 A2979 RMK A01 T01820156  RH  085%=      5-min Rain = 0
KTR1 240748Z 16005KT 18/16 A2979 RMK A01 T01820156  RH  085%=      5-min Rain = 0
KTR1 240749Z 17005KT 18/16 A2979 RMK A01 T01820155  RH  085%=      5-min Rain = 0
KTR1 240750Z 18005KT 18/16 A2979 RMK A01 T01820155  RH  085%=      5-min Rain = 0
KTR1 240751Z 16004KT 18/16 A2979 RMK A01 T01820155  RH  084%=      5-min Rain = 0
KTR1 240752Z 15003KT 18/15 A2979 RMK A01 T01820154  RH  083%=      5-min Rain = 0
KTR1 240753Z 17003KT 18/16 A2979 RMK A01 T01830155  RH  084%=      5-min Rain = 0
KTR1 240754Z 19003KT 18/16 A2979 RMK A01 T01830156  RH  084%=      5-min Rain = 0
KTR1 240755Z 20004KT 18/16 A2979 RMK A01 T01830157  RH  085%=      5-min Rain = 0
KTR1 240756Z 21004KT 18/16 A2979 RMK A01 T01820158  RH  086%=      5-min Rain = 0
KTR1 240757Z 20003KT 18/16 A2979 RMK A01 T01810158  RH  086%=      5-min Rain = 0
KTR1 240758Z 21003KT 18/16 A2979 RMK A01 T01800158  RH  087%=      5-min Rain = 0
KTR1 240759Z 22004KT 18/16 A2979 RMK A01 T01790158  RH  087%=      5-min Rain = 0
KTR1 240800Z 23005KT 18/16 A2979 RMK A01 T01790158  RH  088%=      5-min Rain = 0
KTR1 240801Z 22005KT 18/16 A2979 RMK A01 T01780158  RH  088%=      5-min Rain = 0
KTR1 240802Z 21005KT 18/16 A2979 RMK A01 T01770158  RH  088%=      5-min Rain = 0
KTR1 240803Z 21004KT 18/16 A2979 RMK A01 T01770158  RH  089%=      5-min Rain = 0
KTR1 240804Z 21004KT 18/16 A2979 RMK A01 T01770157  RH  088%=      5-min Rain = 0
KTR1 240805Z 22005KT 18/16 A2979 RMK A01 T01770157  RH  088%=      5-min Rain = 0
KTR1 240806Z 22006KT 18/16 A2979 RMK A01 T01770158  RH  089%=      5-min Rain = 0
KTR1 240807Z 23006KT 18/16 A2979 RMK A01 T01770158  RH  089%=      5-min Rain = 0
KTR1 240808Z 23006KT 18/16 A2979 RMK A01 T01770157  RH  088%=      5-min Rain = 0
KTR1 240809Z 23006KT 18/16 A2979 RMK A01 T01770157  RH  088%=      5-min Rain = 0
KTR1 240810Z 23006KT 18/16 A2979 RMK A01 T01770157  RH  088%=      5-min Rain = 0
KTR1 240811Z 23006KT 18/16 A2979 RMK A01 T01770157  RH  088%=      5-min Rain = 0
KTR1 240812Z 23005KT 18/16 A2979 RMK A01 T01770157  RH  088%=      5-min Rain = 0
KTR1 240813Z 24005KT 18/16 A2979 RMK A01 T01780157  RH  087%=      5-min Rain = 0
KTR1 240814Z 24006KT 18/16 A2979 RMK A01 T01780157  RH  088%=      5-min Rain = 0
KTR1 240815Z 24006KT 18/16 A2979 RMK A01 T01780157  RH  088%=      5-min Rain = 0
KTR1 240816Z 24006KT 18/16 A2979 RMK A01 T01780157  RH  088%=      5-min Rain = 0
KTR1 240817Z 24005KT 18/16 A2979 RMK A01 T01780157  RH  087%=      5-min Rain = 0
KTR1 240818Z 24005KT 18/16 A2979 RMK A01 T01780156  RH  087%=      5-min Rain = 0
KTR1 240819Z 24005KT 18/16 A2979 RMK A01 T01780156  RH  087%=      5-min Rain = 0
KTR1 240820Z 23006KT 18/16 A2979 RMK A01 T01780156  RH  087%=      5-min Rain = 0
KTR1 240821Z 23006KT 18/16 A298 RMK A01 T01790156  RH  087%=      5-min Rain = 0
KTR1 240822Z 23005KT 18/16 A298 RMK A01 T01780157  RH  087%=      5-min Rain = 0
KTR1 240823Z 23006KT 18/16 A298 RMK A01 T01790157  RH  087%=      5-min Rain = 0
KTR1 240824Z 23005KT 18/16 A298 RMK A01 T01780157  RH  087%=      5-min Rain = 0
KTR1 240825Z 23005KT 18/16 A298 RMK A01 T01780157  RH  088%=      5-min Rain = 0
KTR1 240826Z 23005KT 18/16 A298 RMK A01 T01780157  RH  088%=      5-min Rain = 0
KTR1 240827Z 22005KT 18/16 A298 RMK A01 T01780158  RH  088%=      5-min Rain = 0
KTR1 240828Z 22005KT 18/16 A298 RMK A01 T01780158  RH  088%=      5-min Rain = 0
KTR1 240829Z 22004KT 18/16 A298 RMK A01 T01780158  RH  088%=      5-min Rain = 0
KTR1 240830Z 22004KT 18/16 A298 RMK A01 T01780158  RH  088%=      5-min Rain = 0
KTR1 240831Z 21005KT 18/16 A298 RMK A01 T01780158  RH  088%=      5-min Rain = 0
KTR1 240832Z 21005KT 18/16 A298 RMK A01 T01780158  RH  088%=      5-min Rain = 0
KTR1 240833Z 21005KT 18/16 A298 RMK A01 T01780158  RH  088%=      5-min Rain = 0
KTR1 240834Z 21005KT 18/16 A298 RMK A01 T01790158  RH  088%=      5-min Rain = 0
KTR1 240835Z 20005KT 18/16 A298 RMK A01 T01790157  RH  087%=      5-min Rain = 0
KTR1 240836Z 19005KT 18/16 A298 RMK A01 T01790158  RH  087%=      5-min Rain = 0
KTR1 240837Z 20006KT 18/16 A298 RMK A01 T01800158  RH  087%=      5-min Rain = 0
KTR1 240838Z 19006KT 18/16 A298 RMK A01 T01800157  RH  086%=      5-min Rain = 0
KTR1 240839Z 18005KT 18/16 A298 RMK A01 T01810157  RH  086%=      5-min Rain = 0
KTR1 240840Z 18006KT 18/16 A298 RMK A01 T01810156  RH  085%=      5-min Rain = 0
KTR1 240841Z 19007KT 18/16 A298 RMK A01 T01820156  RH  084%=      5-min Rain = 0
KTR1 240842Z 19007KT 18/16 A298 RMK A01 T01830156  RH  084%=      5-min Rain = 0
KTR1 240843Z 19006KT 18/16 A298 RMK A01 T01840156  RH  084%=      5-min Rain = 0
KTR1 240844Z 19006KT 19/16 A298 RMK A01 T01850156  RH  084%=      5-min Rain = 0
KTR1 240845Z 19006KT 18/16 A298 RMK A01 T01840156  RH  083%=      5-min Rain = 0
KTR1 240846Z 19007KT 19/16 A298 RMK A01 T01850155  RH  083%=      5-min Rain = 0
KTR1 240847Z 19008KT 19/16 A298 RMK A01 T01850156  RH  083%=      5-min Rain = 0
KTR1 240848Z 19007KT 19/16 A298 RMK A01 T01850156  RH  084%=      5-min Rain = 0
KTR1 240849Z 19006KT 19/16 A298 RMK A01 T01850156  RH  083%=      5-min Rain = 0
KTR1 240850Z 19008KT 19/16 A298 RMK A01 T01850155  RH  083%=      5-min Rain = 0
KTR1 240851Z 19007KT 19/16 A298 RMK A01 T01850156  RH  083%=      5-min Rain = 0
KTR1 240852Z 19007KT 19/16 A298 RMK A01 T01850155  RH  082%=      5-min Rain = 0
KTR1 240853Z 19007KT 19/16 A298 RMK A01 T01860155  RH  082%=      5-min Rain = 0
KTR1 240854Z 19008KT 19/16 A298 RMK A01 T01860155  RH  082%=      5-min Rain = 0
KTR1 240855Z 19006KT 19/16 A298 RMK A01 T01860155  RH  082%=      5-min Rain = 0
KTR1 240856Z 19007KT 19/16 A298 RMK A01 T01860155  RH  082%=      5-min Rain = 0
KTR1 240857Z 19008KT 19/16 A298 RMK A01 T01860156  RH  083%=      5-min Rain = 0
KTR1 240858Z 20008KT 19/16 A298 RMK A01 T01860156  RH  083%=      5-min Rain = 0
KTR1 240859Z 19007KT 19/16 A298 RMK A01 T01860156  RH  083%=      5-min Rain = 0
KTR1 240900Z 19008KT 19/16 A298 RMK A01 T01860157  RH  083%=      5-min Rain = 0
KTR1 240901Z 19008KT 19/16 A298 RMK A01 T01850156  RH  083%=      5-min Rain = 0
KTR1 240902Z 18007KT 19/16 A298 RMK A01 T01850156  RH  083%=      5-min Rain = 0
KTR1 240903Z 18007KT 19/16 A298 RMK A01 T01850156  RH  083%=      5-min Rain = 0
KTR1 240904Z 19008KT 19/16 A2981 RMK A01 T01850155  RH  082%=      5-min Rain = 0
KTR1 240905Z 18008KT 19/16 A2981 RMK A01 T01860156  RH  082%=      5-min Rain = 0
KTR1 240906Z 18007KT 19/16 A2981 RMK A01 T01860156  RH  082%=      5-min Rain = 0
KTR1 240907Z 18007KT 19/16 A2981 RMK A01 T01870156  RH  082%=      5-min Rain = 0
KTR1 240908Z 17006KT 19/16 A2981 RMK A01 T01870155  RH  082%=      5-min Rain = 0
KTR1 240909Z 18007KT 19/16 A2981 RMK A01 T01870156  RH  082%=      5-min Rain = 0
KTR1 240910Z 19008KT 19/16 A2981 RMK A01 T01870157  RH  083%=      5-min Rain = 0
KTR1 240911Z 18008KT 19/16 A2981 RMK A01 T01870157  RH  083%=      5-min Rain = 0
KTR1 240912Z 19007KT 19/16 A2981 RMK A01 T01870157  RH  083%=      5-min Rain = 0
KTR1 240913Z 18007KT 19/16 A2981 RMK A01 T01870158  RH  083%=      5-min Rain = 0
KTR1 240914Z 19007KT 19/16 A2981 RMK A01 T01870158  RH  083%=      5-min Rain = 0
KTR1 240915Z 19007KT 19/16 A2981 RMK A01 T01870157  RH  083%=      5-min Rain = 0
KTR1 240916Z 18008KT 19/16 A2981 RMK A01 T01870157  RH  083%=      5-min Rain = 0
KTR1 240917Z 18008KT 19/16 A2981 RMK A01 T01870157  RH  083%=      5-min Rain = 0
KTR1 240918Z 19007KT 19/16 A2981 RMK A01 T01870158  RH  083%=      5-min Rain = 0
KTR1 240919Z 19007KT 19/16 A2981 RMK A01 T01870158  RH  083%=      5-min Rain = 0
KTR1 240920Z 18008KT 19/16 A2981 RMK A01 T01860158  RH  083%=      5-min Rain = 0
KTR1 240921Z 19007KT 19/16 A2981 RMK A01 T01860158  RH  084%=      5-min Rain = 0
KTR1 240922Z 19007KT 19/16 A2981 RMK A01 T01860158  RH  084%=      5-min Rain = 0
KTR1 240923Z 19008KT 19/16 A2981 RMK A01 T01850158  RH  084%=      5-min Rain = 0
KTR1 240924Z 19007KT 19/16 A2981 RMK A01 T01850158  RH  084%=      5-min Rain = 0
KTR1 240925Z 19007KT 19/16 A2981 RMK A01 T01850159  RH  085%=      5-min Rain = 0
KTR1 240926Z 19008KT 18/16 A2981 RMK A01 T01840159  RH  085%=      5-min Rain = 0
KTR1 240927Z 19008KT 18/16 A2981 RMK A01 T01840159  RH  085%=      5-min Rain = 0
KTR1 240928Z 19007KT 18/16 A2981 RMK A01 T01840158  RH  085%=      5-min Rain = 0
KTR1 240929Z 19008KT 18/16 A2981 RMK A01 T01830158  RH  085%=      5-min Rain = 0
KTR1 240930Z 19008KT 18/16 A2982 RMK A01 T01840158  RH  085%=      5-min Rain = 0
KTR1 240931Z 19008KT 18/16 A2982 RMK A01 T01830159  RH  085%=      5-min Rain = 0
KTR1 240932Z 19008KT 18/16 A2982 RMK A01 T01840159  RH  086%=      5-min Rain = 0
KTR1 240933Z 19008KT 18/16 A2982 RMK A01 T01830159  RH  085%=      5-min Rain = 0
KTR1 240934Z 19008KT 18/16 A2982 RMK A01 T01830159  RH  085%=      5-min Rain = 0
KTR1 240935Z 19007KT 18/16 A2982 RMK A01 T01840159  RH  085%=      5-min Rain = 0
KTR1 240936Z 19007KT 18/16 A2981 RMK A01 T01830159  RH  086%=      5-min Rain = 0
KTR1 240937Z 19007KT 18/16 A2981 RMK A01 T01830159  RH  086%=      5-min Rain = 0
KTR1 240938Z 18008KT 18/16 A2981 RMK A01 T01830159  RH  086%=      5-min Rain = 0
KTR1 240939Z 19008KT 18/16 A2981 RMK A01 T01830159  RH  086%=      5-min Rain = 0
KTR1 240940Z 18007KT 18/16 A2981 RMK A01 T01830159  RH  086%=      5-min Rain = 0
KTR1 240941Z 19008KT 18/16 A2982 RMK A01 T01830159  RH  086%=      5-min Rain = 0
KTR1 240942Z 19008KT 18/16 A2981 RMK A01 T01830160  RH  086%=      5-min Rain = 0
KTR1 240943Z 19008KT 18/16 A2981 RMK A01 T01830160  RH  086%=      5-min Rain = 0
KTR1 240944Z 19007KT 18/16 A2981 RMK A01 T01830160  RH  086%=      5-min Rain = 0
KTR1 240945Z 19008KT 18/16 A2981 RMK A01 T01830159  RH  086%=      5-min Rain = 0
KTR1 240946Z 19007KT 18/16 A2981 RMK A01 T01830159  RH  086%=      5-min Rain = 0
KTR1 240947Z 18008KT 18/16 A2981 RMK A01 T01830160  RH  086%=      5-min Rain = 0
KTR1 240948Z 18007KT 18/16 A2981 RMK A01 T01830159  RH  086%=      5-min Rain = 0
KTR1 240949Z 18007KT 18/16 A2981 RMK A01 T01830160  RH  087%=      5-min Rain = 0
KTR1 240950Z 18007KT 18/16 A2981 RMK A01 T01820161  RH  087%=      5-min Rain = 0
KTR1 240951Z 18008KT 18/16 A2981 RMK A01 T01820159  RH  087%=      5-min Rain = 0
KTR1 240952Z 18007KT 18/16 A2981 RMK A01 T01820159  RH  087%=      5-min Rain = 0
KTR1 240953Z 18007KT 18/16 A2981 RMK A01 T01820159  RH  087%=      5-min Rain = 0
KTR1 240954Z 18007KT 18/16 A2981 RMK A01 T01820160  RH  087%=      5-min Rain = 0
KTR1 240955Z 18008KT 18/16 A2981 RMK A01 T01810159  RH  087%=      5-min Rain = 0
KTR1 240956Z 18007KT 18/16 A298 RMK A01 T01810159  RH  087%=      5-min Rain = 0
KTR1 240957Z 18006KT 18/16 A298 RMK A01 T01810159  RH  087%=      5-min Rain = 0
KTR1 240958Z 18006KT 18/16 A298 RMK A01 T01810159  RH  087%=      5-min Rain = 0
KTR1 240959Z 18007KT 18/16 A298 RMK A01 T01810159  RH  087%=      5-min Rain = 0
KTR1 241000Z 18007KT 18/16 A298 RMK A01 T01800159  RH  087%=      5-min Rain = 0
KTR1 241001Z 18006KT 18/16 A298 RMK A01 T01800159  RH  087%=      5-min Rain = 0
KTR1 241002Z 18007KT 18/16 A298 RMK A01 T01800159  RH  088%=      5-min Rain = 0
KTR1 241003Z 18007KT 18/16 A298 RMK A01 T01810160  RH  088%=      5-min Rain = 0
KTR1 241004Z 18007KT 18/16 A298 RMK A01 T01800160  RH  088%=      5-min Rain = 0
KTR1 241005Z 18007KT 18/16 A298 RMK A01 T01800160  RH  088%=      5-min Rain = 0
KTR1 241006Z 18008KT 18/16 A298 RMK A01 T01800160  RH  088%=      5-min Rain = 0
KTR1 241007Z 19007KT 18/16 A298 RMK A01 T01790159  RH  088%=      5-min Rain = 0
KTR1 241008Z 19008KT 18/16 A298 RMK A01 T01790160  RH  088%=      5-min Rain = 0
KTR1 241009Z 19008KT 18/16 A298 RMK A01 T01790160  RH  088%=      5-min Rain = 0
KTR1 241010Z 19009KT 18/16 A298 RMK A01 T01790159  RH  088%=      5-min Rain = 0
KTR1 241011Z 18008KT 18/16 A298 RMK A01 T01790159  RH  088%=      5-min Rain = 0
KTR1 241012Z 18008KT 18/16 A298 RMK A01 T01790159  RH  088%=      5-min Rain = 0
KTR1 241013Z 18008KT 18/16 A298 RMK A01 T01790159  RH  088%=      5-min Rain = 0
KTR1 241014Z 18009KT 18/16 A298 RMK A01 T01790158  RH  087%=      5-min Rain = 0
KTR1 241015Z 18008KT 18/16 A298 RMK A01 T01800158  RH  087%=      5-min Rain = 0
KTR1 241016Z 18008KT 18/16 A298 RMK A01 T01800158  RH  087%=      5-min Rain = 0
KTR1 241017Z 18008KT 18/16 A298 RMK A01 T01800158  RH  087%=      5-min Rain = 0
KTR1 241018Z 18008KT 18/16 A298 RMK A01 T01800158  RH  087%=      5-min Rain = 0
KTR1 241019Z 18008KT 18/16 A298 RMK A01 T01800159  RH  087%=      5-min Rain = 0
KTR1 241020Z 19008KT 18/16 A298 RMK A01 T01800159  RH  087%=      5-min Rain = 0
KTR1 241021Z 19008KT 18/16 A298 RMK A01 T01800159  RH  088%=      5-min Rain = 0
KTR1 241022Z 19008KT 18/16 A298 RMK A01 T01800159  RH  088%=      5-min Rain = 0
KTR1 241023Z 19008KT 18/16 A298 RMK A01 T01800159  RH  088%=      5-min Rain = 0
KTR1 241024Z 19008KT 18/16 A298 RMK A01 T01800160  RH  088%=      5-min Rain = 0
KTR1 241025Z 18008KT 18/16 A298 RMK A01 T01800159  RH  088%=      5-min Rain = 0
KTR1 241026Z 18007KT 18/16 A298 RMK A01 T01790159  RH  088%=      5-min Rain = 0
KTR1 241027Z 18008KT 18/16 A298 RMK A01 T01800159  RH  088%=      5-min Rain = 0
KTR1 241028Z 18008KT 18/16 A298 RMK A01 T01790160  RH  088%=      5-min Rain = 0
KTR1 241029Z 18007KT 18/16 A298 RMK A01 T01790160  RH  088%=      5-min Rain = 0
KTR1 241030Z 18009KT 18/16 A298 RMK A01 T01800160  RH  088%=      5-min Rain = 0
KTR1 241031Z 18009KT 18/16 A298 RMK A01 T01790160  RH  088%=      5-min Rain = 0
KTR1 241032Z 17009KT 18/16 A298 RMK A01 T01800160  RH  088%=      5-min Rain = 0
KTR1 241033Z 17009KT 18/16 A298 RMK A01 T01790159  RH  088%=      5-min Rain = 0
KTR1 241034Z 17009KT 18/16 A298 RMK A01 T01790159  RH  088%=      5-min Rain = 0
KTR1 241035Z 17009KT 18/16 A298 RMK A01 T01790159  RH  088%=      5-min Rain = 0
KTR1 241036Z 17008KT 18/16 A298 RMK A01 T01790160  RH  088%=      5-min Rain = 0
KTR1 241037Z 17008KT 18/16 A298 RMK A01 T01790159  RH  088%=      5-min Rain = 0
KTR1 241038Z 17009KT 18/16 A298 RMK A01 T01790160  RH  088%=      5-min Rain = 0
KTR1 241039Z 17008KT 18/16 A298 RMK A01 T01790160  RH  088%=      5-min Rain = 0
KTR1 241040Z 17008KT 18/16 A2981 RMK A01 T01790160  RH  088%=      5-min Rain = 0
KTR1 241041Z 17008KT 18/16 A2981 RMK A01 T01800160  RH  088%=      5-min Rain = 0
KTR1 241042Z 17008KT 18/16 A2981 RMK A01 T01790160  RH  088%=      5-min Rain = 0
KTR1 241043Z 17008KT 18/16 A2981 RMK A01 T01790160  RH  088%=      5-min Rain = 0
KTR1 241044Z 17008KT 18/16 A2981 RMK A01 T01790160  RH  088%=      5-min Rain = 0
KTR1 241045Z 17008KT 18/16 A2981 RMK A01 T01790160  RH  088%=      5-min Rain = 0
KTR1 241046Z 18008KT 18/16 A2981 RMK A01 T01790160  RH  089%=      5-min Rain = 0
KTR1 241047Z 18007KT 18/16 A2981 RMK A01 T01790160  RH  089%=      5-min Rain = 0
KTR1 241048Z 18007KT 18/16 A2981 RMK A01 T01790160  RH  089%=      5-min Rain = 0
KTR1 241049Z 18006KT 18/16 A2981 RMK A01 T01780160  RH  089%=      5-min Rain = 0
KTR1 241050Z 18007KT 18/16 A2981 RMK A01 T01780160  RH  089%=      5-min Rain = 0
KTR1 241051Z 18006KT 18/16 A2981 RMK A01 T01780161  RH  090%=      5-min Rain = 0
KTR1 241052Z 18006KT 18/16 A2981 RMK A01 T01780161  RH  090%=      5-min Rain = 0
KTR1 241053Z 18006KT 18/16 A2981 RMK A01 T01780161  RH  090%=      5-min Rain = 0
KTR1 241054Z 18007KT 18/16 A2981 RMK A01 T01770161  RH  090%=      5-min Rain = 0
KTR1 241055Z 19007KT 18/16 A2981 RMK A01 T01780161  RH  090%=      5-min Rain = 0
KTR1 241056Z 18006KT 18/16 A2981 RMK A01 T01770161  RH  090%=      5-min Rain = 0
KTR1 241057Z 18006KT 18/16 A2981 RMK A01 T01770161  RH  090%=      5-min Rain = 0
KTR1 241058Z 18006KT 18/16 A2981 RMK A01 T01770161  RH  090%=      5-min Rain = 0
KTR1 241059Z 18007KT 18/16 A2981 RMK A01 T01770161  RH  090%=      5-min Rain = 0
KTR1 241100Z 18006KT 18/16 A2981 RMK A01 T01770161  RH  090%=      5-min Rain = 0
KTR1 241101Z 18005KT 18/16 A2981 RMK A01 T01770160  RH  090%=      5-min Rain = 0
KTR1 241102Z 18006KT 18/16 A2982 RMK A01 T01770161  RH  090%=      5-min Rain = 0
KTR1 241103Z 18006KT 18/16 A2982 RMK A01 T01770161  RH  090%=      5-min Rain = 0
KTR1 241104Z 18007KT 18/16 A2982 RMK A01 T01770161  RH  090%=      5-min Rain = 0
KTR1 241105Z 18006KT 18/16 A2982 RMK A01 T01770161  RH  090%=      5-min Rain = 0
KTR1 241106Z 18007KT 18/16 A2982 RMK A01 T01770161  RH  090%=      5-min Rain = 0
KTR1 241107Z 18006KT 18/16 A2982 RMK A01 T01770160  RH  090%=      5-min Rain = 0
KTR1 241108Z 18006KT 18/16 A2982 RMK A01 T01770161  RH  090%=      5-min Rain = 0
KTR1 241109Z 18006KT 18/16 A2982 RMK A01 T01770161  RH  090%=      5-min Rain = 0
KTR1 241110Z 18005KT 18/16 A2982 RMK A01 T01770161  RH  090%=      5-min Rain = 0
KTR1 241111Z 18005KT 18/16 A2982 RMK A01 T01770161  RH  091%=      5-min Rain = 0
KTR1 241112Z 18005KT 18/16 A2982 RMK A01 T01760161  RH  091%=      5-min Rain = 0
KTR1 241113Z 18005KT 18/16 A2982 RMK A01 T01760161  RH  091%=      5-min Rain = 0
KTR1 241114Z 17005KT 18/16 A2982 RMK A01 T01770162  RH  091%=      5-min Rain = 0
KTR1 241115Z 18006KT 18/16 A2983 RMK A01 T01760161  RH  091%=      5-min Rain = 0
KTR1 241116Z 18005KT 18/16 A2982 RMK A01 T01760161  RH  091%=      5-min Rain = 0
KTR1 241117Z 17005KT 18/16 A2982 RMK A01 T01760161  RH  091%=      5-min Rain = 0
KTR1 241118Z 17004KT 18/16 A2982 RMK A01 T01760161  RH  091%=      5-min Rain = 0
KTR1 241119Z 17005KT 18/16 A2982 RMK A01 T01760161  RH  091%=      5-min Rain = 0
KTR1 241120Z 17004KT 18/16 A2982 RMK A01 T01760161  RH  091%=      5-min Rain = 0
KTR1 241121Z 17004KT 18/16 A2982 RMK A01 T01760161  RH  091%=      5-min Rain = 0
KTR1 241122Z 17004KT 18/16 A2982 RMK A01 T01760161  RH  091%=      5-min Rain = 0
KTR1 241123Z 17004KT 18/16 A2982 RMK A01 T01760162  RH  091%=      5-min Rain = 0
KTR1 241124Z 17005KT 18/16 A2982 RMK A01 T01760162  RH  091%=      5-min Rain = 0
KTR1 241125Z 16004KT 18/16 A2982 RMK A01 T01760161  RH  091%=      5-min Rain = 0
KTR1 241126Z 16004KT 18/16 A2982 RMK A01 T01760161  RH  091%=      5-min Rain = 0
KTR1 241127Z 16004KT 18/16 A2982 RMK A01 T01760161  RH  091%=      5-min Rain = 0
KTR1 241128Z 17004KT 18/16 A2982 RMK A01 T01760161  RH  091%=      5-min Rain = 0
KTR1 241129Z 17004KT 18/16 A2983 RMK A01 T01760162  RH  091%=      5-min Rain = 0
KTR1 241130Z 17004KT 18/16 A2983 RMK A01 T01760162  RH  091%=      5-min Rain = 0
KTR1 241131Z 16004KT 18/16 A2982 RMK A01 T01760162  RH  092%=      5-min Rain = 0
KTR1 241132Z 16004KT 18/16 A2982 RMK A01 T01760162  RH  091%=      5-min Rain = 0
KTR1 241133Z 15004KT 18/16 A2982 RMK A01 T01760162  RH  092%=      5-min Rain = 0
KTR1 241134Z 15004KT 18/16 A2982 RMK A01 T01760162  RH  092%=      5-min Rain = 0
KTR1 241135Z 16004KT 18/16 A2982 RMK A01 T01760162  RH  092%=      5-min Rain = 0
KTR1 241136Z 17004KT 18/16 A2983 RMK A01 T01760162  RH  092%=      5-min Rain = 0
KTR1 241137Z 17004KT 18/16 A2983 RMK A01 T01760162  RH  092%=      5-min Rain = 0
KTR1 241138Z 16004KT 18/16 A2982 RMK A01 T01760162  RH  092%=      5-min Rain = 0
KTR1 241139Z 15004KT 18/16 A2982 RMK A01 T01760162  RH  091%=      5-min Rain = 0
KTR1 241140Z 15003KT 18/16 A2982 RMK A01 T01760162  RH  091%=      5-min Rain = 0
KTR1 241141Z 16005KT 18/16 A2982 RMK A01 T01760162  RH  091%=      5-min Rain = 0
KTR1 241142Z 16004KT 18/16 A2982 RMK A01 T01760161  RH  091%=      5-min Rain = 0
KTR1 241143Z 16005KT 18/16 A2982 RMK A01 T01770162  RH  091%=      5-min Rain = 0
KTR1 241144Z 16004KT 18/16 A2982 RMK A01 T01770162  RH  091%=      5-min Rain = 0
KTR1 241145Z 15004KT 18/16 A2982 RMK A01 T01770162  RH  091%=      5-min Rain = 0
KTR1 241146Z 15003KT 18/16 A2982 RMK A01 T01770162  RH  091%=      5-min Rain = 0
KTR1 241147Z 15005KT 18/16 A2982 RMK A01 T01770163  RH  092%=      5-min Rain = 0
KTR1 241148Z 15005KT 18/16 A2982 RMK A01 T01770163  RH  092%=      5-min Rain = 0
KTR1 241149Z 14003KT 18/16 A2982 RMK A01 T01770163  RH  092%=      5-min Rain = 0
KTR1 241150Z 15003KT 18/16 A2981 RMK A01 T01770163  RH  092%=      5-min Rain = 0
KTR1 241151Z 14004KT 18/16 A2982 RMK A01 T01770163  RH  092%=      5-min Rain = 0
KTR1 241152Z 15004KT 18/16 A2982 RMK A01 T01770163  RH  092%=      5-min Rain = 0
KTR1 241153Z 13004KT 18/16 A2982 RMK A01 T01770163  RH  092%=      5-min Rain = 0
KTR1 241154Z 14005KT 18/16 A2982 RMK A01 T01770163  RH  092%=      5-min Rain = 0
KTR1 241155Z 16007KT 18/16 A2981 RMK A01 T01770161  RH  091%=      5-min Rain = 0
KTR1 241156Z 16006KT 18/16 A2982 RMK A01 T01790161  RH  089%=      5-min Rain = 0
KTR1 241157Z 16006KT 18/16 A2982 RMK A01 T01800161  RH  089%=      5-min Rain = 0
KTR1 241158Z 15007KT 18/16 A2982 RMK A01 T01810162  RH  089%=      5-min Rain = 0
KTR1 241159Z 14005KT 18/16 A2981 RMK A01 T01810162  RH  089%=      5-min Rain = 0
KTR1 241200Z 16005KT 18/16 A2982 RMK A01 T01810163  RH  089%=      5-min Rain = 0
KTR1 241201Z 16005KT 18/16 A2982 RMK A01 T01810163  RH  089%=      5-min Rain = 0
KTR1 241202Z 15004KT 18/16 A2982 RMK A01 T01810163  RH  090%=      5-min Rain = 0
KTR1 241203Z 14004KT 18/16 A2981 RMK A01 T01800163  RH  090%=      5-min Rain = 0
KTR1 241204Z 14005KT 18/16 A2981 RMK A01 T01800163  RH  090%=      5-min Rain = 0
KTR1 241205Z 15004KT 18/16 A2981 RMK A01 T01800163  RH  090%=      5-min Rain = 0
KTR1 241206Z 15005KT 18/16 A2982 RMK A01 T01800163  RH  090%=      5-min Rain = 0
KTR1 241207Z 15004KT 18/16 A2982 RMK A01 T01800164  RH  091%=      5-min Rain = 0
KTR1 241208Z 14004KT 18/16 A2981 RMK A01 T01790164  RH  091%=      5-min Rain = 0
KTR1 241209Z 14004KT 18/16 A2981 RMK A01 T01790164  RH  091%=      5-min Rain = 0
KTR1 241210Z 14003KT 18/16 A2981 RMK A01 T01800164  RH  091%=      5-min Rain = 0
KTR1 241211Z 15004KT 18/16 A2982 RMK A01 T01790164  RH  091%=      5-min Rain = 0
KTR1 241212Z 15004KT 18/17 A2982 RMK A01 T01800165  RH  091%=      5-min Rain = 0
KTR1 241213Z 15004KT 18/16 A2982 RMK A01 T01800164  RH  091%=      5-min Rain = 0
KTR1 241214Z 15004KT 18/16 A2982 RMK A01 T01800164  RH  090%=      5-min Rain = 0
KTR1 241215Z 15004KT 18/16 A2982 RMK A01 T01800164  RH  090%=      5-min Rain = 0
KTR1 241216Z 15003KT 18/16 A2982 RMK A01 T01800164  RH  090%=      5-min Rain = 0
KTR1 241217Z 16004KT 18/17 A2982 RMK A01 T01800165  RH  091%=      5-min Rain = 0
KTR1 241218Z 16004KT 18/17 A2982 RMK A01 T01810165  RH  091%=      5-min Rain = 0
KTR1 241219Z 16004KT 18/17 A2982 RMK A01 T01810166  RH  091%=      5-min Rain = 0
KTR1 241220Z 16004KT 18/17 A2982 RMK A01 T01810166  RH  091%=      5-min Rain = 0
KTR1 241221Z 16004KT 18/17 A2982 RMK A01 T01810166  RH  091%=      5-min Rain = 0
KTR1 241222Z 16004KT 18/17 A2983 RMK A01 T01810166  RH  091%=      5-min Rain = 0
KTR1 241223Z 16004KT 18/17 A2983 RMK A01 T01810166  RH  091%=      5-min Rain = 0
KTR1 241224Z 16004KT 18/17 A2983 RMK A01 T01810166  RH  091%=      5-min Rain = 0
KTR1 241225Z 16004KT 18/17 A2983 RMK A01 T01810166  RH  091%=      5-min Rain = 0
KTR1 241226Z 16004KT 18/17 A2983 RMK A01 T01820167  RH  091%=      5-min Rain = 0
KTR1 241227Z 16004KT 18/17 A2983 RMK A01 T01820167  RH  091%=      5-min Rain = 0
KTR1 241228Z 16004KT 18/17 A2983 RMK A01 T01820168  RH  091%=      5-min Rain = 0
KTR1 241229Z 16005KT 18/17 A2983 RMK A01 T01820167  RH  091%=      5-min Rain = 0
KTR1 241230Z 17004KT 18/17 A2983 RMK A01 T01830167  RH  091%=      5-min Rain = 0
KTR1 241231Z 17005KT 18/17 A2983 RMK A01 T01830166  RH  090%=      5-min Rain = 0
KTR1 241232Z 17004KT 18/17 A2983 RMK A01 T01830166  RH  090%=      5-min Rain = 0
KTR1 241233Z 17004KT 18/17 A2983 RMK A01 T01830167  RH  091%=      5-min Rain = 0
KTR1 241234Z 17003KT 18/17 A2983 RMK A01 T01830168  RH  091%=      5-min Rain = 0
KTR1 241235Z 17004KT 18/17 A2983 RMK A01 T01840168  RH  090%=      5-min Rain = 0
KTR1 241236Z 17004KT 18/17 A2983 RMK A01 T01840167  RH  090%=      5-min Rain = 0
KTR1 241237Z 17003KT 19/17 A2983 RMK A01 T01850168  RH  090%=      5-min Rain = 0
KTR1 241238Z 17005KT 19/17 A2983 RMK A01 T01860169  RH  090%=      5-min Rain = 0
KTR1 241239Z 17004KT 19/17 A2983 RMK A01 T01860168  RH  089%=      5-min Rain = 0
KTR1 241240Z 17004KT 19/17 A2983 RMK A01 T01870169  RH  089%=      5-min Rain = 0
KTR1 241241Z 16005KT 19/17 A2982 RMK A01 T01870168  RH  089%=      5-min Rain = 0
KTR1 241242Z 16004KT 19/17 A2982 RMK A01 T01870167  RH  088%=      5-min Rain = 0
KTR1 241243Z 17005KT 19/17 A2982 RMK A01 T01880168  RH  088%=      5-min Rain = 0
KTR1 241244Z 17004KT 19/17 A2983 RMK A01 T01890169  RH  088%=      5-min Rain = 0
KTR1 241245Z 17004KT 19/17 A2983 RMK A01 T01890169  RH  088%=      5-min Rain = 0
KTR1 241246Z 17005KT 19/17 A2983 RMK A01 T01900169  RH  088%=      5-min Rain = 0
KTR1 241247Z 16004KT 19/17 A2983 RMK A01 T01910169  RH  087%=      5-min Rain = 0
KTR1 241248Z 17005KT 19/17 A2983 RMK A01 T01920169  RH  087%=      5-min Rain = 0
KTR1 241249Z 18007KT 19/17 A2983 RMK A01 T01920169  RH  086%=      5-min Rain = 0
KTR1 241250Z 17005KT 19/17 A2983 RMK A01 T01930169  RH  086%=      5-min Rain = 0
KTR1 241251Z 17007KT 19/17 A2983 RMK A01 T01940169  RH  086%=      5-min Rain = 0
KTR1 241252Z 17007KT 19/17 A2983 RMK A01 T01940170  RH  086%=      5-min Rain = 0
KTR1 241253Z 17007KT 20/17 A2983 RMK A01 T01950170  RH  085%=      5-min Rain = 0
KTR1 241254Z 16007KT 20/17 A2983 RMK A01 T01960169  RH  085%=      5-min Rain = 0
KTR1 241255Z 17007KT 20/17 A2983 RMK A01 T01960170  RH  085%=      5-min Rain = 0
KTR1 241256Z 17007KT 20/17 A2983 RMK A01 T01970169  RH  084%=      5-min Rain = 0
KTR1 241257Z 17008KT 20/17 A2983 RMK A01 T01970170  RH  084%=      5-min Rain = 0
KTR1 241258Z 16008KT 20/17 A2983 RMK A01 T01970170  RH  084%=      5-min Rain = 0
KTR1 241259Z 16009KT 20/17 A2983 RMK A01 T01970169  RH  084%=      5-min Rain = 0
KTR1 241300Z 16008KT 20/17 A2983 RMK A01 T01970171  RH  084%=      5-min Rain = 0
KTR1 241301Z 17007KT 20/17 A2983 RMK A01 T01980170  RH  084%=      5-min Rain = 0
KTR1 241302Z 17008KT 20/17 A2983 RMK A01 T01990171  RH  084%=      5-min Rain = 0
KTR1 241303Z 17007KT 20/17 A2983 RMK A01 T01990173  RH  084%=      5-min Rain = 0
KTR1 241304Z 17009KT 20/17 A2983 RMK A01 T02010172  RH  084%=      5-min Rain = 0
KTR1 241305Z 17006KT 20/17 A2983 RMK A01 T02010173  RH  084%=      5-min Rain = 0
KTR1 241306Z 17010KT 20/17 A2983 RMK A01 T02020173  RH  083%=      5-min Rain = 0
KTR1 241307Z 17009KT 20/17 A2983 RMK A01 T02020172  RH  083%=      5-min Rain = 0
KTR1 241308Z 16008KT 20/17 A2983 RMK A01 T02010172  RH  083%=      5-min Rain = 0
KTR1 241309Z 18007KT 20/17 A2983 RMK A01 T02000173  RH  084%=      5-min Rain = 0
KTR1 241310Z 17008KT 20/17 A2983 RMK A01 T02000173  RH  085%=      5-min Rain = 0
KTR1 241311Z 17011KT 20/17 A2983 RMK A01 T02000173  RH  084%=      5-min Rain = 0
KTR1 241312Z 16010KT 20/17 A2983 RMK A01 T02000173  RH  084%=      5-min Rain = 0
KTR1 241313Z 16012KT 20/17 A2983 RMK A01 T02010174  RH  084%=      5-min Rain = 0
KTR1 241314Z 16009KT 20/17 A2983 RMK A01 T02010174  RH  085%=      5-min Rain = 0
KTR1 241315Z 16010KT 20/17 A2983 RMK A01 T02010174  RH  085%=      5-min Rain = 0
KTR1 241316Z 17009KT 20/17 A2983 RMK A01 T02010174  RH  084%=      5-min Rain = 0
KTR1 241317Z 17008KT 20/18 A2983 RMK A01 T02020175  RH  085%=      5-min Rain = 0
KTR1 241318Z 16009KT 20/18 A2983 RMK A01 T02020176  RH  085%=      5-min Rain = 0
KTR1 241319Z 16009KT 20/18 A2983 RMK A01 T02040177  RH  085%=      5-min Rain = 0
KTR1 241320Z 16008KT 21/18 A2983 RMK A01 T02050177  RH  084%=      5-min Rain = 0
KTR1 241321Z 16009KT 21/18 A2983 RMK A01 T02060177  RH  084%=      5-min Rain = 0
KTR1 241322Z 17011KT 21/18 A2983 RMK A01 T02060177  RH  083%=      5-min Rain = 0
KTR1 241323Z 17009KT 21/18 A2983 RMK A01 T02060178  RH  084%=      5-min Rain = 0
KTR1 241324Z 17010KT 21/18 A2983 RMK A01 T02060178  RH  084%=      5-min Rain = 0
KTR1 241325Z 17012KT 21/18 A2983 RMK A01 T02070179  RH  084%=      5-min Rain = 0
KTR1 241326Z 17011KT 21/18 A2983 RMK A01 T02060179  RH  085%=      5-min Rain = 0
KTR1 241327Z 16009KT 21/18 A2983 RMK A01 T02060180  RH  085%=      5-min Rain = 0
KTR1 241328Z 17011KT 21/18 A2983 RMK A01 T02060180  RH  085%=      5-min Rain = 0
KTR1 241329Z 16010KT 21/18 A2983 RMK A01 T02060180  RH  085%=      5-min Rain = 0
KTR1 241330Z 16011KT 21/18 A2983 RMK A01 T02060181  RH  085%=      5-min Rain = 0
KTR1 241331Z 17011KT 21/18 A2983 RMK A01 T02060180  RH  085%=      5-min Rain = 0
KTR1 241332Z 17012KT 21/18 A2983 RMK A01 T02060181  RH  085%=      5-min Rain = 0
KTR1 241333Z 17013KT 21/18 A2983 RMK A01 T02060180  RH  085%=      5-min Rain = 0
KTR1 241334Z 17010KT 21/18 A2983 RMK A01 T02060181  RH  086%=      5-min Rain = 0
KTR1 241335Z 17011KT 21/18 A2983 RMK A01 T02060182  RH  086%=      5-min Rain = 0
KTR1 241336Z 17011KT 21/18 A2983 RMK A01 T02060182  RH  086%=      5-min Rain = 0
KTR1 241337Z 17009KT 21/18 A2983 RMK A01 T02070182  RH  086%=      5-min Rain = 0
KTR1 241338Z 18010KT 21/18 A2983 RMK A01 T02070183  RH  086%=      5-min Rain = 0
KTR1 241339Z 17009KT 21/18 A2983 RMK A01 T02080183  RH  086%=      5-min Rain = 0
KTR1 241340Z 17010KT 21/18 A2983 RMK A01 T02090184  RH  085%=      5-min Rain = 0
KTR1 241341Z 17011KT 21/18 A2983 RMK A01 T02110184  RH  085%=      5-min Rain = 0
KTR1 241342Z 18011KT 21/19 A2984 RMK A01 T02120185  RH  085%=      5-min Rain = 0
KTR1 241343Z 18011KT 21/19 A2984 RMK A01 T02130185  RH  084%=      5-min Rain = 0
KTR1 241344Z 17010KT 21/19 A2983 RMK A01 T02140185  RH  084%=      5-min Rain = 0
KTR1 241345Z 18008KT 22/19 A2983 RMK A01 T02150187  RH  084%=      5-min Rain = 0
KTR1 241346Z 17012KT 22/19 A2984 RMK A01 T02170187  RH  083%=      5-min Rain = 0
KTR1 241347Z 16012KT 22/19 A2984 RMK A01 T02180186  RH  082%=      5-min Rain = 0
KTR1 241348Z 16012KT 22/19 A2983 RMK A01 T02200186  RH  082%=      5-min Rain = 0
KTR1 241349Z 17012KT 22/19 A2983 RMK A01 T02200186  RH  081%=      5-min Rain = 0
KTR1 241350Z 17014KT 22/19 A2983 RMK A01 T02200186  RH  081%=      5-min Rain = 0
KTR1 241351Z 18013KT 22/19 A2983 RMK A01 T02200185  RH  080%=      5-min Rain = 0
KTR1 241352Z 17013KT 22/19 A2983 RMK A01 T02210185  RH  080%=      5-min Rain = 0
KTR1 241353Z 17014KT 22/19 A2983 RMK A01 T02210186  RH  080%=      5-min Rain = 0
KTR1 241354Z 18013KT 22/19 A2983 RMK A01 T02210186  RH  080%=      5-min Rain = 0
KTR1 241355Z 18014KT 22/19 A2983 RMK A01 T02210186  RH  081%=      5-min Rain = 0
KTR1 241356Z 18014KT 22/18 A2983 RMK A01 T02200184  RH  080%=      5-min Rain = 0
KTR1 241357Z 18014KT 22/18 A2983 RMK A01 T02190183  RH  080%=      5-min Rain = 0
KTR1 241358Z 17012KT 22/18 A2983 RMK A01 T02200183  RH  079%=      5-min Rain = 0
KTR1 241359Z 19013KT 22/19 A2983 RMK A01 T02200185  RH  080%=      5-min Rain = 0
KTR1 241400Z 18012KT 22/18 A2983 RMK A01 T02220184  RH  079%=      5-min Rain = 0
KTR1 241401Z 18014KT 22/18 A2983 RMK A01 T02220184  RH  079%=      5-min Rain = 0
KTR1 241402Z 18016KT 22/18 A2983 RMK A01 T02230181  RH  077%=      5-min Rain = 0
KTR1 241403Z 18015KT 22/18 A2983 RMK A01 T02230181  RH  077%=      5-min Rain = 0
KTR1 241404Z 18015G20KT 22/18 A2983 RMK A01 T02240183  RH  078%=      5-min Rain = 0
KTR1 241405Z 18015KT 22/18 A2983 RMK A01 T02240181  RH  077%=      5-min Rain = 0
KTR1 241406Z 18016KT 22/18 A2983 RMK A01 T02240182  RH  077%=      5-min Rain = 0
KTR1 241407Z 18013KT 22/18 A2983 RMK A01 T02240182  RH  077%=      5-min Rain = 0
KTR1 241408Z 18016KT 23/18 A2983 RMK A01 T02250183  RH  077%=      5-min Rain = 0
KTR1 241409Z 17016KT 23/18 A2983 RMK A01 T02260181  RH  076%=      5-min Rain = 0
KTR1 241410Z 17014KT 23/18 A2983 RMK A01 T02250181  RH  076%=      5-min Rain = 0
KTR1 241411Z 18016KT 23/18 A2983 RMK A01 T02260181  RH  076%=      5-min Rain = 0
KTR1 241412Z 17014KT 23/18 A2983 RMK A01 T02260182  RH  076%=      5-min Rain = 0
KTR1 241413Z 17012KT 23/18 A2983 RMK A01 T02270182  RH  076%=      5-min Rain = 0
KTR1 241414Z 18010KT 23/18 A2984 RMK A01 T02280183  RH  076%=      5-min Rain = 0
KTR1 241415Z 17012KT 23/18 A2983 RMK A01 T02300183  RH  075%=      5-min Rain = 0
KTR1 241416Z 17015KT 23/18 A2984 RMK A01 T02310183  RH  074%=      5-min Rain = 0
KTR1 241417Z 18012KT 23/18 A2984 RMK A01 T02310181  RH  073%=      5-min Rain = 0
KTR1 241418Z 18013KT 23/18 A2984 RMK A01 T02310182  RH  074%=      5-min Rain = 0
KTR1 241419Z 18013KT 23/18 A2984 RMK A01 T02310182  RH  074%=      5-min Rain = 0
KTR1 241420Z 18013KT 23/18 A2984 RMK A01 T02310182  RH  074%=      5-min Rain = 0
KTR1 241421Z 18015KT 23/18 A2984 RMK A01 T02310181  RH  073%=      5-min Rain = 0
KTR1 241422Z 18012KT 23/18 A2984 RMK A01 T02310182  RH  074%=      5-min Rain = 0
KTR1 241423Z 17012G17KT 23/18 A2984 RMK A01 T02330184  RH  074%=      5-min Rain = 0
KTR1 241424Z 19013KT 24/18 A2984 RMK A01 T02350183  RH  073%=      5-min Rain = 0
KTR1 241425Z 19013KT 24/18 A2984 RMK A01 T02350182  RH  072%=      5-min Rain = 0
KTR1 241426Z 18013KT 24/18 A2984 RMK A01 T02350182  RH  072%=      5-min Rain = 0
KTR1 241427Z 18012KT 24/18 A2984 RMK A01 T02350183  RH  073%=      5-min Rain = 0
KTR1 241428Z 19015KT 24/18 A2984 RMK A01 T02360182  RH  071%=      5-min Rain = 0
KTR1 241429Z 18014KT 24/18 A2984 RMK A01 T02360182  RH  071%=      5-min Rain = 0
KTR1 241430Z 17012KT 24/18 A2984 RMK A01 T02360182  RH  072%=      5-min Rain = 0
KTR1 241431Z 17014KT 24/18 A2984 RMK A01 T02370181  RH  071%=      5-min Rain = 0
KTR1 241432Z 18013KT 24/18 A2984 RMK A01 T02370183  RH  072%=      5-min Rain = 0
KTR1 241433Z 19015KT 24/18 A2984 RMK A01 T02380181  RH  070%=      5-min Rain = 0
KTR1 241434Z 18014KT 24/18 A2984 RMK A01 T02370181  RH  071%=      5-min Rain = 0
KTR1 241435Z 17016KT 24/18 A2984 RMK A01 T02370180  RH  070%=      5-min Rain = 0
KTR1 241436Z 18016KT 24/18 A2984 RMK A01 T02370179  RH  070%=      5-min Rain = 0
KTR1 241437Z 18014KT 24/18 A2984 RMK A01 T02370181  RH  071%=      5-min Rain = 0
KTR1 241438Z 18013KT 24/18 A2984 RMK A01 T02380180  RH  070%=      5-min Rain = 0
KTR1 241439Z 17016G21KT 24/18 A2984 RMK A01 T02390180  RH  069%=      5-min Rain = 0
KTR1 241440Z 18014G20KT 24/18 A2984 RMK A01 T02390181  RH  070%=      5-min Rain = 0
KTR1 241441Z 17016KT 24/18 A2984 RMK A01 T02400179  RH  069%=      5-min Rain = 0
KTR1 241442Z 17016KT 24/18 A2983 RMK A01 T02400179  RH  069%=      5-min Rain = 0
KTR1 241443Z 17015KT 24/18 A2984 RMK A01 T02400178  RH  068%=      5-min Rain = 0
KTR1 241444Z 18014KT 24/18 A2983 RMK A01 T02410179  RH  068%=      5-min Rain = 0
KTR1 241445Z 19014KT 24/18 A2983 RMK A01 T02420180  RH  068%=      5-min Rain = 0
KTR1 241446Z 19016KT 24/18 A2983 RMK A01 T02430178  RH  067%=      5-min Rain = 0
KTR1 241447Z 19014KT 24/18 A2983 RMK A01 T02430179  RH  067%=      5-min Rain = 0
KTR1 241448Z 18012KT 24/18 A2983 RMK A01 T02440180  RH  068%=      5-min Rain = 0
KTR1 241449Z 18012KT 25/18 A2983 RMK A01 T02450181  RH  067%=      5-min Rain = 0
KTR1 241450Z 18011KT 25/18 A2983 RMK A01 T02470180  RH  066%=      5-min Rain = 0
KTR1 241451Z 18013KT 25/18 A2983 RMK A01 T02490181  RH  066%=      5-min Rain = 0
KTR1 241452Z 19015KT 25/18 A2983 RMK A01 T02490179  RH  065%=      5-min Rain = 0
KTR1 241453Z 18014KT 25/18 A2983 RMK A01 T02480180  RH  066%=      5-min Rain = 0
KTR1 241454Z 18014KT 25/18 A2983 RMK A01 T02480178  RH  065%=      5-min Rain = 0
KTR1 241455Z 18013KT 25/18 A2983 RMK A01 T02480179  RH  065%=      5-min Rain = 0
KTR1 241456Z 18013KT 25/18 A2983 RMK A01 T02500179  RH  065%=      5-min Rain = 0
KTR1 241457Z 17013KT 25/18 A2983 RMK A01 T02500178  RH  064%=      5-min Rain = 0
KTR1 241458Z 17015KT 25/18 A2983 RMK A01 T02510176  RH  063%=      5-min Rain = 0
KTR1 241459Z 17016KT 25/18 A2983 RMK A01 T02500175  RH  063%=      5-min Rain = 0
KTR1 241500Z 17015KT 25/18 A2983 RMK A01 T02490175  RH  063%=      5-min Rain = 0
KTR1 241501Z 17014KT 25/18 A2983 RMK A01 T02490177  RH  064%=      5-min Rain = 0
KTR1 241502Z 18016KT 25/18 A2983 RMK A01 T02510175  RH  063%=      5-min Rain = 0
KTR1 241503Z 19015KT 25/17 A2983 RMK A01 T02510174  RH  062%=      5-min Rain = 0
KTR1 241504Z 19013KT 25/18 A2983 RMK A01 T02510176  RH  063%=      5-min Rain = 0
KTR1 241505Z 18013KT 25/18 A2983 RMK A01 T02520177  RH  063%=      5-min Rain = 0
KTR1 241506Z 18015KT 25/18 A2983 RMK A01 T02540176  RH  062%=      5-min Rain = 0
KTR1 241507Z 18014KT 25/17 A2983 RMK A01 T02530173  RH  061%=      5-min Rain = 0
KTR1 241508Z 18014G19KT 25/17 A2983 RMK A01 T02530172  RH  061%=      5-min Rain = 0
KTR1 241509Z 18013KT 25/17 A2983 RMK A01 T02540173  RH  061%=      5-min Rain = 0
KTR1 241510Z 17014KT 26/17 A2983 RMK A01 T02560174  RH  061%=      5-min Rain = 0
KTR1 241511Z 17013KT 26/18 A2983 RMK A01 T02570176  RH  061%=      5-min Rain = 0
KTR1 241512Z 17013KT 26/18 A2982 RMK A01 T02580178  RH  061%=      5-min Rain = 0
KTR1 241513Z 18015KT 26/18 A2982 RMK A01 T02600176  RH  060%=      5-min Rain = 0
KTR1 241514Z 17013G18KT 26/18 A2982 RMK A01 T02590176  RH  060%=      5-min Rain = 0
KTR1 241515Z 17018KT 26/17 A2982 RMK A01 T02590174  RH  059%=      5-min Rain = 0
KTR1 241516Z 18016KT 26/17 A2982 RMK A01 T02570172  RH  060%=      5-min Rain = 0
KTR1 241517Z 18016KT 26/17 A2982 RMK A01 T02560174  RH  060%=      5-min Rain = 0
KTR1 241518Z 18017KT 26/17 A2982 RMK A01 T02550173  RH  060%=      5-min Rain = 0
KTR1 241519Z 17016G21KT 26/17 A2982 RMK A01 T02560173  RH  060%=      5-min Rain = 0
KTR1 241520Z 16017KT 26/17 A2982 RMK A01 T02580171  RH  059%=      5-min Rain = 0
KTR1 241521Z 17015KT 26/17 A2982 RMK A01 T02580171  RH  059%=      5-min Rain = 0
KTR1 241522Z 16017KT 26/17 A2982 RMK A01 T02580170  RH  058%=      5-min Rain = 0
KTR1 241523Z 17018KT 26/17 A2982 RMK A01 T02590169  RH  058%=      5-min Rain = 0
KTR1 241524Z 17017KT 26/17 A2982 RMK A01 T02580171  RH  059%=      5-min Rain = 0
KTR1 241525Z 17016KT 26/17 A2982 RMK A01 T02570171  RH  059%=      5-min Rain = 0
KTR1 241526Z 16015G20KT 26/17 A2982 RMK A01 T02580174  RH  060%=      5-min Rain = 0
KTR1 241527Z 16016KT 26/17 A2982 RMK A01 T02600173  RH  059%=      5-min Rain = 0
KTR1 241528Z 16017KT 26/17 A2982 RMK A01 T02600173  RH  058%=      5-min Rain = 0
KTR1 241529Z 17018KT 26/17 A2982 RMK A01 T02610170  RH  057%=      5-min Rain = 0
KTR1 241530Z 17020KT 26/16 A2982 RMK A01 T02620164  RH  055%=      5-min Rain = 0
KTR1 241531Z 17021KT 26/16 A2982 RMK A01 T02610161  RH  054%=      5-min Rain = 0
KTR1 241532Z 18022G28KT 26/16 A2981 RMK A01 T02610161  RH  054%=      5-min Rain = 0
KTR1 241533Z 18019KT 26/16 A2981 RMK A01 T02600162  RH  055%=      5-min Rain = 0
KTR1 241534Z 18018G23KT 26/16 A2981 RMK A01 T02600163  RH  055%=      5-min Rain = 0
KTR1 241535Z 18018KT 26/17 A2981 RMK A01 T02620165  RH  055%=      5-min Rain = 0
KTR1 241536Z 18018KT 26/17 A2981 RMK A01 T02620166  RH  055%=      5-min Rain = 0
KTR1 241537Z 18018G23KT 26/16 A2981 RMK A01 T02630164  RH  054%=      5-min Rain = 0
KTR1 241538Z 18015KT 26/17 A2981 RMK A01 T02640166  RH  055%=      5-min Rain = 0
KTR1 241539Z 16020KT 27/17 A2981 RMK A01 T02650168  RH  055%=      5-min Rain = 0
KTR1 241540Z 17019KT 27/16 A2981 RMK A01 T02660164  RH  054%=      5-min Rain = 0
KTR1 241541Z 17020G25KT 27/16 A2981 RMK A01 T02660164  RH  053%=      5-min Rain = 0
KTR1 241542Z 18022KT 27/16 A2981 RMK A01 T02650162  RH  053%=      5-min Rain = 0
KTR1 241543Z 17019KT 27/16 A2981 RMK A01 T02660160  RH  052%=      5-min Rain = 0
KTR1 241544Z 18018KT 27/16 A2981 RMK A01 T02660160  RH  052%=      5-min Rain = 0
KTR1 241545Z 18020G25KT 27/16 A2981 RMK A01 T02660160  RH  052%=      5-min Rain = 0
KTR1 241546Z 18018G23KT 27/16 A2981 RMK A01 T02660160  RH  052%=      5-min Rain = 0
KTR1 241547Z 18019KT 27/16 A2981 RMK A01 T02660159  RH  052%=      5-min Rain = 0
KTR1 241548Z 18018KT 27/16 A2981 RMK A01 T02660161  RH  052%=      5-min Rain = 0
KTR1 241549Z 18016G21KT 27/16 A2981 RMK A01 T02660163  RH  053%=      5-min Rain = 0
KTR1 241550Z 19016KT 27/16 A2981 RMK A01 T02670163  RH  053%=      5-min Rain = 0
KTR1 241551Z 17015G20KT 27/17 A2981 RMK A01 T02670167  RH  054%=      5-min Rain = 0
KTR1 241552Z 17016G25KT 27/17 A2981 RMK A01 T02680167  RH  054%=      5-min Rain = 0
KTR1 241553Z 18019KT 27/16 A2981 RMK A01 T02700163  RH  052%=      5-min Rain = 0
KTR1 241554Z 17019G24KT 27/16 A2981 RMK A01 T02690160  RH  051%=      5-min Rain = 0
KTR1 241555Z 18019KT 27/16 A2982 RMK A01 T02680159  RH  051%=      5-min Rain = 0
KTR1 241556Z 17017KT 27/16 A2982 RMK A01 T02680160  RH  052%=      5-min Rain = 0
KTR1 241557Z 18020KT 27/16 A2982 RMK A01 T02700159  RH  050%=      5-min Rain = 0
KTR1 241558Z 18019KT 27/16 A2982 RMK A01 T02700157  RH  050%=      5-min Rain = 0
KTR1 241559Z 18019KT 27/16 A2982 RMK A01 T02690159  RH  051%=      5-min Rain = 0
KTR1 241600Z 19015G20KT 27/16 A2982 RMK A01 T02690160  RH  052%=      5-min Rain = 0
KTR1 241601Z 18017KT 27/16 A2982 RMK A01 T02700163  RH  052%=      5-min Rain = 0
KTR1 241602Z 18018G25KT 27/16 A2982 RMK A01 T02710159  RH  050%=      5-min Rain = 0
KTR1 241603Z 19018G24KT 27/16 A2982 RMK A01 T02700160  RH  051%=      5-min Rain = 0
KTR1 241604Z 18016G22KT 27/16 A2982 RMK A01 T02710161  RH  051%=      5-min Rain = 0
KTR1 241605Z 19017G22KT 27/16 A2982 RMK A01 T02710162  RH  051%=      5-min Rain = 0
KTR1 241606Z 18017KT 27/16 A2982 RMK A01 T02720160  RH  050%=      5-min Rain = 0
KTR1 241607Z 17017KT 27/16 A2982 RMK A01 T02730162  RH  051%=      5-min Rain = 0
KTR1 241608Z 18015KT 27/16 A2982 RMK A01 T02730163  RH  051%=      5-min Rain = 0
KTR1 241609Z 18014KT 27/16 A2982 RMK A01 T02740164  RH  051%=      5-min Rain = 0
KTR1 241610Z 19015G20KT 28/17 A2982 RMK A01 T02750167  RH  052%=      5-min Rain = 0
KTR1 241611Z 17012KT 28/16 A2982 RMK A01 T02760164  RH  050%=      5-min Rain = 0
KTR1 241612Z 18018G23KT 28/16 A2982 RMK A01 T02780163  RH  050%=      5-min Rain = 0
KTR1 241613Z 18018G24KT 28/16 A2982 RMK A01 T02770161  RH  049%=      5-min Rain = 0
KTR1 241614Z 17017KT 28/16 A2982 RMK A01 T02760160  RH  049%=      5-min Rain = 0
KTR1 241615Z 17016G21KT 27/16 A2982 RMK A01 T02740158  RH  049%=      5-min Rain = 0
KTR1 241616Z 18017KT 27/16 A2982 RMK A01 T02730161  RH  050%=      5-min Rain = 0
KTR1 241617Z 18016KT 27/16 A2982 RMK A01 T02730163  RH  051%=      5-min Rain = 0
KTR1 241618Z 19017KT 27/16 A2982 RMK A01 T02740162  RH  050%=      5-min Rain = 0
KTR1 241619Z 19018KT 28/16 A2982 RMK A01 T02750161  RH  050%=      5-min Rain = 0
KTR1 241620Z 20018KT 28/16 A2982 RMK A01 T02750162  RH  050%=      5-min Rain = 0
KTR1 241621Z 20017KT 28/16 A2982 RMK A01 T02750159  RH  049%=      5-min Rain = 0
KTR1 241622Z 19019G25KT 28/16 A2982 RMK A01 T02750160  RH  049%=      5-min Rain = 0
KTR1 241623Z 19020KT 27/16 A2982 RMK A01 T02740157  RH  049%=      5-min Rain = 0
KTR1 241624Z 18018KT 27/16 A2982 RMK A01 T02730158  RH  049%=      5-min Rain = 0
KTR1 241625Z 18019KT 27/16 A2982 RMK A01 T02730158  RH  049%=      5-min Rain = 0
KTR1 241626Z 18014G19KT 27/16 A2982 RMK A01 T02730160  RH  050%=      5-min Rain = 0
KTR1 241627Z 18017KT 28/16 A2982 RMK A01 T02760162  RH  050%=      5-min Rain = 0
KTR1 241628Z 19017KT 28/16 A2982 RMK A01 T02770161  RH  049%=      5-min Rain = 0
KTR1 241629Z 19014G20KT 28/17 A2983 RMK A01 T02770165  RH  050%=      5-min Rain = 0
KTR1 241630Z 18017KT 28/17 A2983 RMK A01 T02790165  RH  050%=      5-min Rain = 0
KTR1 241631Z 18020KT 28/16 A2983 RMK A01 T02790162  RH  049%=      5-min Rain = 0
KTR1 241632Z 18019KT 28/16 A2983 RMK A01 T02770162  RH  050%=      5-min Rain = 0
KTR1 241633Z 18016G21KT 28/16 A2983 RMK A01 T02760164  RH  050%=      5-min Rain = 0
KTR1 241634Z 18013KT 28/17 A2983 RMK A01 T02770165  RH  051%=      5-min Rain = 0
KTR1 241635Z 19017KT 28/16 A2983 RMK A01 T02790164  RH  050%=      5-min Rain = 0
KTR1 241636Z 18018KT 28/16 A2983 RMK A01 T02780164  RH  050%=      5-min Rain = 0
KTR1 241637Z 17018KT 28/16 A2982 RMK A01 T02780163  RH  050%=      5-min Rain = 0
KTR1 241638Z 18018G23KT 28/16 A2983 RMK A01 T02770162  RH  049%=      5-min Rain = 0
KTR1 241639Z 18016G21KT 28/16 A2982 RMK A01 T02770163  RH  050%=      5-min Rain = 0
KTR1 241640Z 18021KT 28/16 A2982 RMK A01 T02770162  RH  050%=      5-min Rain = 0
KTR1 241641Z 18019KT 28/16 A2982 RMK A01 T02760162  RH  050%=      5-min Rain = 0
KTR1 241642Z 17017KT 28/16 A2982 RMK A01 T02760163  RH  050%=      5-min Rain = 0
KTR1 241643Z 18018KT 28/16 A2982 RMK A01 T02770164  RH  050%=      5-min Rain = 0
KTR1 241644Z 18015KT 28/17 A2982 RMK A01 T02780165  RH  050%=      5-min Rain = 0
KTR1 241645Z 17014G20KT 28/17 A2983 RMK A01 T02790168  RH  051%=      5-min Rain = 0
KTR1 241646Z 17017KT 28/17 A2983 RMK A01 T02810166  RH  050%=      5-min Rain = 0
KTR1 241647Z 17015KT 28/17 A2983 RMK A01 T02810167  RH  050%=      5-min Rain = 0
KTR1 241648Z 16016KT 28/17 A2983 RMK A01 T02800167  RH  050%=      5-min Rain = 0
KTR1 241649Z 18016G21KT 28/17 A2983 RMK A01 T02800168  RH  051%=      5-min Rain = 0
KTR1 241650Z 17016KT 28/17 A2983 RMK A01 T02800169  RH  051%=      5-min Rain = 0
KTR1 241651Z 18015KT 28/17 A2983 RMK A01 T02810171  RH  051%=      5-min Rain = 0
KTR1 241652Z 18018KT 28/17 A2983 RMK A01 T02830168  RH  050%=      5-min Rain = 0
KTR1 241653Z 18014G19KT 28/17 A2983 RMK A01 T02820167  RH  050%=      5-min Rain = 0
KTR1 241654Z 18013KT 28/17 A2983 RMK A01 T02800168  RH  051%=      5-min Rain = 0
KTR1 241655Z 18014KT 28/17 A2983 RMK A01 T02800167  RH  050%=      5-min Rain = 0
KTR1 241656Z 18015KT 28/17 A2983 RMK A01 T02810172  RH  052%=      5-min Rain = 0
KTR1 241657Z 17014KT 28/17 A2983 RMK A01 T02820170  RH  051%=      5-min Rain = 0
KTR1 241658Z 17015KT 28/17 A2983 RMK A01 T02840171  RH  050%=      5-min Rain = 0
KTR1 241659Z 18018KT 28/17 A2983 RMK A01 T02840166  RH  049%=      5-min Rain = 0
KTR1 241700Z 16015KT 28/17 A2983 RMK A01 T02820168  RH  050%=      5-min Rain = 0
KTR1 241701Z 16016G21KT 28/17 A2983 RMK A01 T02830167  RH  049%=      5-min Rain = 0
KTR1 241702Z 17015G20KT 28/17 A2983 RMK A01 T02830168  RH  049%=      5-min Rain = 0
KTR1 241703Z 16018KT 28/17 A2983 RMK A01 T02840165  RH  048%=      5-min Rain = 0
KTR1 241704Z 17013KT 28/17 A2983 RMK A01 T02840169  RH  050%=      5-min Rain = 0
KTR1 241705Z 18018KT 29/16 A2983 RMK A01 T02850164  RH  048%=      5-min Rain = 0
KTR1 241706Z 18015KT 28/16 A2983 RMK A01 T02840164  RH  048%=      5-min Rain = 0
KTR1 241707Z 18017KT 28/17 A2982 RMK A01 T02820166  RH  050%=      5-min Rain = 0
KTR1 241708Z 18013KT 28/17 A2982 RMK A01 T02830171  RH  051%=      5-min Rain = 0
KTR1 241709Z 17015G24KT 29/17 A2982 RMK A01 T02870173  RH  050%=      5-min Rain = 0
KTR1 241710Z 17018G23KT 29/17 A2982 RMK A01 T02880168  RH  048%=      5-min Rain = 0
KTR1 241711Z 17019KT 29/17 A2982 RMK A01 T02870167  RH  048%=      5-min Rain = 0
KTR1 241712Z 18018KT 29/16 A2982 RMK A01 T02850163  RH  048%=      5-min Rain = 0
KTR1 241713Z 18018G23KT 28/17 A2982 RMK A01 T02830165  RH  049%=      5-min Rain = 0
KTR1 241714Z 17019KT 28/16 A2982 RMK A01 T02840162  RH  048%=      5-min Rain = 0
KTR1 241715Z 18016KT 28/17 A2982 RMK A01 T02840166  RH  049%=      5-min Rain = 0
KTR1 241716Z 18017G23KT 29/17 A2982 RMK A01 T02850166  RH  048%=      5-min Rain = 0
KTR1 241717Z 19021KT 29/17 A2982 RMK A01 T02850166  RH  048%=      5-min Rain = 0
KTR1 241718Z 19018KT 28/17 A2982 RMK A01 T02840166  RH  049%=      5-min Rain = 0
KTR1 241719Z 19019G24KT 28/17 A2982 RMK A01 T02830167  RH  049%=      5-min Rain = 0
KTR1 241720Z 19017G22KT 28/17 A2982 RMK A01 T02820169  RH  050%=      5-min Rain = 0
KTR1 241721Z 18012G17KT 28/18 A2982 RMK A01 T02830176  RH  052%=      5-min Rain = 0
KTR1 241722Z 19013KT 29/18 A2982 RMK A01 T02880176  RH  051%=      5-min Rain = 0
KTR1 241723Z 19017G22KT 29/17 A2982 RMK A01 T02900171  RH  049%=      5-min Rain = 0
KTR1 241724Z 19016KT 29/17 A2982 RMK A01 T02880167  RH  048%=      5-min Rain = 0
KTR1 241725Z 18015G20KT 29/17 A2982 RMK A01 T02860168  RH  049%=      5-min Rain = 0
KTR1 241726Z 17015KT 29/17 A2982 RMK A01 T02860169  RH  049%=      5-min Rain = 0
KTR1 241727Z 18017KT 29/17 A2982 RMK A01 T02890170  RH  049%=      5-min Rain = 0
KTR1 241728Z 17013G18KT 29/17 A2982 RMK A01 T02890167  RH  048%=      5-min Rain = 0
KTR1 241729Z 17014G19KT 29/17 A2982 RMK A01 T02880172  RH  049%=      5-min Rain = 0
KTR1 241730Z 17016KT 29/17 A2982 RMK A01 T02900169  RH  048%=      5-min Rain = 0
KTR1 241731Z 18015KT 29/17 A2982 RMK A01 T02900170  RH  048%=      5-min Rain = 0
KTR1 241732Z 18018G23KT 29/17 A2982 RMK A01 T02910167  RH  047%=      5-min Rain = 0
KTR1 241733Z 17017KT 29/17 A2982 RMK A01 T02890168  RH  048%=      5-min Rain = 0
KTR1 241734Z 17018KT 29/17 A2981 RMK A01 T02890169  RH  048%=      5-min Rain = 0
KTR1 241735Z 19015KT 29/17 A2982 RMK A01 T02890170  RH  049%=      5-min Rain = 0
KTR1 241736Z 18018KT 29/17 A2982 RMK A01 T02900168  RH  048%=      5-min Rain = 0
KTR1 241737Z 19015KT 29/17 A2981 RMK A01 T02880166  RH  048%=      5-min Rain = 0
KTR1 241738Z 18013G20KT 29/17 A2981 RMK A01 T02870169  RH  049%=      5-min Rain = 0
KTR1 241739Z 18013G19KT 29/17 A2981 RMK A01 T02900172  RH  049%=      5-min Rain = 0
KTR1 241740Z 17018KT 29/17 A2981 RMK A01 T02930166  RH  046%=      5-min Rain = 0
KTR1 241741Z 17020KT 29/17 A2981 RMK A01 T02910168  RH  047%=      5-min Rain = 0
KTR1 241742Z 17017G24KT 29/17 A2981 RMK A01 T02910166  RH  047%=      5-min Rain = 0
KTR1 241743Z 17017KT 29/17 A2981 RMK A01 T02900166  RH  047%=      5-min Rain = 0
KTR1 241744Z 17021G26KT 29/17 A2981 RMK A01 T02900167  RH  047%=      5-min Rain = 0
KTR1 241745Z 17018G24KT 29/17 A2981 RMK A01 T02900167  RH  047%=      5-min Rain = 0
KTR1 241746Z 19017KT 29/17 A2981 RMK A01 T02900168  RH  048%=      5-min Rain = 0
KTR1 241747Z 19017KT 29/17 A2981 RMK A01 T02900168  RH  047%=      5-min Rain = 0
KTR1 241748Z 19017G22KT 29/17 A2981 RMK A01 T02920170  RH  048%=      5-min Rain = 0
KTR1 241749Z 19018KT 29/17 A2981 RMK A01 T02930169  RH  047%=      5-min Rain = 0
KTR1 241750Z 18019KT 29/17 A2981 RMK A01 T02930166  RH  047%=      5-min Rain = 0
KTR1 241751Z 19018G23KT 29/17 A2981 RMK A01 T02900165  RH  047%=      5-min Rain = 0
KTR1 241752Z 19018KT 29/17 A298 RMK A01 T02890167  RH  048%=      5-min Rain = 0
KTR1 241753Z 19012G18KT 29/17 A298 RMK A01 T02900172  RH  049%=      5-min Rain = 0
KTR1 241754Z 19015KT 29/17 A298 RMK A01 T02940174  RH  049%=      5-min Rain = 0
KTR1 241755Z 19014KT 30/17 A298 RMK A01 T02950169  RH  047%=      5-min Rain = 0
KTR1 241756Z 20016G21KT 29/17 A298 RMK A01 T02940173  RH  048%=      5-min Rain = 0
KTR1 241757Z 19014G19KT 29/17 A298 RMK A01 T02930170  RH  048%=      5-min Rain = 0
KTR1 241758Z 18014KT 29/18 A298 RMK A01 T02920176  RH  049%=      5-min Rain = 0
KTR1 241759Z 17018KT 30/17 A298 RMK A01 T02950171  RH  047%=      5-min Rain = 0
KTR1 241800Z 17015KT 29/17 A298 RMK A01 T02940173  RH  048%=      5-min Rain = 0
KTR1 241801Z 17015G22KT 29/17 A298 RMK A01 T02940171  RH  047%=      5-min Rain = 0
KTR1 241802Z 18015G20KT 29/17 A298 RMK A01 T02940170  RH  047%=      5-min Rain = 0
KTR1 241803Z 17017G23KT 29/17 A298 RMK A01 T02930174  RH  049%=      5-min Rain = 0
KTR1 241804Z 17020KT 29/17 A298 RMK A01 T02940172  RH  048%=      5-min Rain = 0
KTR1 241805Z 17017G22KT 29/17 A298 RMK A01 T02940170  RH  047%=      5-min Rain = 0
KTR1 241806Z 17018KT 29/17 A298 RMK A01 T02940169  RH  047%=      5-min Rain = 0
KTR1 241807Z 18012G17KT 29/17 A298 RMK A01 T02930171  RH  048%=      5-min Rain = 0
KTR1 241808Z 17014G19KT 30/17 A298 RMK A01 T02950174  RH  048%=      5-min Rain = 0
KTR1 241809Z 16019G26KT 30/17 A298 RMK A01 T02970173  RH  047%=      5-min Rain = 0
KTR1 241810Z 17018KT 30/17 A298 RMK A01 T02960172  RH  047%=      5-min Rain = 0
KTR1 241811Z 17018KT 29/17 A298 RMK A01 T02940168  RH  047%=      5-min Rain = 0
KTR1 241812Z 17017KT 29/17 A298 RMK A01 T02920168  RH  047%=      5-min Rain = 0
KTR1 241813Z 18017KT 29/17 A298 RMK A01 T02920169  RH  047%=      5-min Rain = 0
KTR1 241814Z 18015G20KT 29/17 A2979 RMK A01 T02920174  RH  049%=      5-min Rain = 0
KTR1 241815Z 18015G21KT 30/18 A2979 RMK A01 T02950176  RH  049%=      5-min Rain = 0
KTR1 241816Z 18013KT 30/18 A2979 RMK A01 T02980176  RH  048%=      5-min Rain = 0
KTR1 241817Z 18017G23KT 30/18 A2979 RMK A01 T02990176  RH  048%=      5-min Rain = 0
KTR1 241818Z 17017KT 30/17 A2979 RMK A01 T02980173  RH  047%=      5-min Rain = 0
KTR1 241819Z 16015KT 30/18 A2979 RMK A01 T02970175  RH  048%=      5-min Rain = 0
KTR1 241820Z 18017G23KT 30/18 A2979 RMK A01 T02970176  RH  048%=      5-min Rain = 0
KTR1 241821Z 18020KT 30/17 A2979 RMK A01 T02970174  RH  048%=      5-min Rain = 0
KTR1 241822Z 17018KT 30/18 A2979 RMK A01 T02960176  RH  048%=      5-min Rain = 0
KTR1 241823Z 17018KT 30/18 A2979 RMK A01 T02960175  RH  048%=      5-min Rain = 0
KTR1 241824Z 18019KT 30/17 A2979 RMK A01 T02960174  RH  048%=      5-min Rain = 0
KTR1 241825Z 18016KT 29/17 A2979 RMK A01 T02940172  RH  048%=      5-min Rain = 0
KTR1 241826Z 19016KT 29/18 A2979 RMK A01 T02930175  RH  049%=      5-min Rain = 0
KTR1 241827Z 17017G25KT 29/18 A2979 RMK A01 T02930177  RH  050%=      5-min Rain = 0
KTR1 241828Z 17017KT 30/18 A2979 RMK A01 T02950176  RH  049%=      5-min Rain = 0
KTR1 241829Z 17020KT 30/18 A2978 RMK A01 T02950176  RH  049%=      5-min Rain = 0
KTR1 241830Z 18018KT 30/18 A2978 RMK A01 T02950176  RH  049%=      5-min Rain = 0
KTR1 241831Z 18015G20KT 30/18 A2978 RMK A01 T02950177  RH  049%=      5-min Rain = 0
KTR1 241832Z 17014G19KT 30/18 A2978 RMK A01 T02960180  RH  050%=      5-min Rain = 0
KTR1 241833Z 16017KT 30/18 A2978 RMK A01 T02990180  RH  049%=      5-min Rain = 0
KTR1 241834Z 17015KT 30/18 A2978 RMK A01 T03000181  RH  049%=      5-min Rain = 0
KTR1 241835Z 17019KT 30/18 A2978 RMK A01 T03000179  RH  048%=      5-min Rain = 0
KTR1 241836Z 17016KT 30/18 A2978 RMK A01 T02990179  RH  049%=      5-min Rain = 0
KTR1 241837Z 17013KT 30/18 A2978 RMK A01 T02980180  RH  049%=      5-min Rain = 0
KTR1 241838Z 17015KT 30/18 A2978 RMK A01 T02980181  RH  049%=      5-min Rain = 0
KTR1 241839Z 18016KT 30/18 A2978 RMK A01 T03000184  RH  050%=      5-min Rain = 0
KTR1 241840Z 18020KT 30/18 A2978 RMK A01 T03030184  RH  049%=      5-min Rain = 0
KTR1 241841Z 18014G20KT 30/18 A2978 RMK A01 T03030181  RH  048%=      5-min Rain = 0
KTR1 241842Z 17016KT 30/18 A2978 RMK A01 T03020183  RH  049%=      5-min Rain = 0
KTR1 241843Z 17016KT 30/18 A2978 RMK A01 T03010180  RH  048%=      5-min Rain = 0
KTR1 241844Z 18015G20KT 30/18 A2978 RMK A01 T03010183  RH  049%=      5-min Rain = 0
KTR1 241845Z 18015KT 30/18 A2978 RMK A01 T03020184  RH  049%=      5-min Rain = 0
KTR1 241846Z 17016G22KT 31/19 A2978 RMK A01 T03050187  RH  049%=      5-min Rain = 0
KTR1 241847Z 17020KT 31/18 A2977 RMK A01 T03050179  RH  047%=      5-min Rain = 0
KTR1 241848Z 16019KT 30/18 A2977 RMK A01 T03010180  RH  048%=      5-min Rain = 0
KTR1 241849Z 16019KT 30/18 A2977 RMK A01 T02990179  RH  048%=      5-min Rain = 0
KTR1 241850Z 18020KT 30/18 A2977 RMK A01 T02990181  RH  049%=      5-min Rain = 0
KTR1 241851Z 18016G22KT 30/18 A2977 RMK A01 T03000184  RH  050%=      5-min Rain = 0
KTR1 241852Z 18020KT 30/18 A2977 RMK A01 T03020180  RH  048%=      5-min Rain = 0
KTR1 241853Z 18018KT 30/18 A2977 RMK A01 T03010182  RH  049%=      5-min Rain = 0
KTR1 241854Z 18016G21KT 30/18 A2977 RMK A01 T03020182  RH  049%=      5-min Rain = 0
KTR1 241855Z 19015G20KT 30/18 A2977 RMK A01 T03020182  RH  049%=      5-min Rain = 0
KTR1 241856Z 19018KT 30/18 A2977 RMK A01 T03020182  RH  049%=      5-min Rain = 0
KTR1 241857Z 20017KT 30/18 A2977 RMK A01 T03020183  RH  049%=      5-min Rain = 0
KTR1 241858Z 20013KT 30/19 A2977 RMK A01 T03020186  RH  050%=      5-min Rain = 0
KTR1 241859Z 18013KT 30/19 A2977 RMK A01 T03040185  RH  049%=      5-min Rain = 0
KTR1 241900Z 16017G23KT 30/18 A2977 RMK A01 T03040183  RH  048%=      5-min Rain = 0
KTR1 241901Z 17019KT 30/18 A2977 RMK A01 T03040182  RH  048%=      5-min Rain = 0
KTR1 241902Z 16014KT 30/18 A2976 RMK A01 T03030184  RH  049%=      5-min Rain = 0
KTR1 241903Z 16020G25KT 30/18 A2976 RMK A01 T03040184  RH  049%=      5-min Rain = 0
KTR1 241904Z 18020KT 31/18 A2977 RMK A01 T03050182  RH  048%=      5-min Rain = 0
KTR1 241905Z 19014KT 30/18 A2976 RMK A01 T03040182  RH  048%=      5-min Rain = 0
KTR1 241906Z 20017KT 30/19 A2976 RMK A01 T03040185  RH  049%=      5-min Rain = 0
KTR1 241907Z 20017KT 31/19 A2976 RMK A01 T03070186  RH  049%=      5-min Rain = 0
KTR1 241908Z 18015G20KT 31/19 A2976 RMK A01 T03070185  RH  048%=      5-min Rain = 0
KTR1 241909Z 19014KT 31/18 A2976 RMK A01 T03060182  RH  048%=      5-min Rain = 0
KTR1 241910Z 19015G21KT 30/19 A2976 RMK A01 T03040185  RH  049%=      5-min Rain = 0
KTR1 241911Z 17015KT 31/19 A2976 RMK A01 T03060185  RH  048%=      5-min Rain = 0
KTR1 241912Z 18016KT 31/19 A2976 RMK A01 T03090188  RH  048%=      5-min Rain = 0
KTR1 241913Z 18015KT 31/18 A2976 RMK A01 T03100182  RH  046%=      5-min Rain = 0
KTR1 241914Z 20012G17KT 31/19 A2976 RMK A01 T03080185  RH  048%=      5-min Rain = 0
KTR1 241915Z 20017KT 31/18 A2976 RMK A01 T03070183  RH  048%=      5-min Rain = 0
KTR1 241916Z 20010KT 31/19 A2976 RMK A01 T03060189  RH  050%=      5-min Rain = 0
KTR1 241917Z 19013KT 31/19 A2976 RMK A01 T03090189  RH  049%=      5-min Rain = 0
KTR1 241918Z 18013KT 31/19 A2976 RMK A01 T03110188  RH  048%=      5-min Rain = 0
KTR1 241919Z 18015G21KT 31/19 A2976 RMK A01 T03120186  RH  047%=      5-min Rain = 0
KTR1 241920Z 18019KT 31/18 A2975 RMK A01 T03100183  RH  047%=      5-min Rain = 0
KTR1 241921Z 18019KT 31/18 A2976 RMK A01 T03090181  RH  046%=      5-min Rain = 0
KTR1 241922Z 19014KT 31/18 A2975 RMK A01 T03070182  RH  047%=      5-min Rain = 0
KTR1 241923Z 20017KT 31/18 A2975 RMK A01 T03070183  RH  048%=      5-min Rain = 0
KTR1 241924Z 20018KT 31/18 A2975 RMK A01 T03080184  RH  048%=      5-min Rain = 0
KTR1 241925Z 21015KT 31/18 A2975 RMK A01 T03080182  RH  047%=      5-min Rain = 0
KTR1 241926Z 22015KT 31/18 A2975 RMK A01 T03070184  RH  048%=      5-min Rain = 0
KTR1 241927Z 21013KT 31/18 A2975 RMK A01 T03080183  RH  048%=      5-min Rain = 0
KTR1 241928Z 19015G20KT 31/19 A2975 RMK A01 T03100186  RH  048%=      5-min Rain = 0
KTR1 241929Z 17016KT 31/19 A2975 RMK A01 T03100185  RH  047%=      5-min Rain = 0
KTR1 241930Z 18014KT 31/18 A2975 RMK A01 T03110184  RH  047%=      5-min Rain = 0
KTR1 241931Z 19011KT 31/19 A2975 RMK A01 T03100187  RH  048%=      5-min Rain = 0
KTR1 241932Z 19015KT 31/18 A2975 RMK A01 T03110184  RH  047%=      5-min Rain = 0
KTR1 241933Z 18014KT 31/19 A2975 RMK A01 T03110189  RH  048%=      5-min Rain = 0
KTR1 241934Z 18015KT 31/18 A2975 RMK A01 T03120183  RH  046%=      5-min Rain = 0
KTR1 241935Z 18013KT 31/18 A2975 RMK A01 T03090184  RH  047%=      5-min Rain = 0
KTR1 241936Z 19012KT 31/19 A2975 RMK A01 T03060186  RH  049%=      5-min Rain = 0
KTR1 241937Z 18012G17KT 31/19 A2975 RMK A01 T03070189  RH  050%=      5-min Rain = 0
KTR1 241938Z 19015KT 31/19 A2975 RMK A01 T03100188  RH  048%=      5-min Rain = 0
KTR1 241939Z 19017KT 31/18 A2975 RMK A01 T03120184  RH  047%=      5-min Rain = 0
KTR1 241940Z 19016KT 31/18 A2975 RMK A01 T03100182  RH  046%=      5-min Rain = 0
KTR1 241941Z 18016KT 31/18 A2975 RMK A01 T03080181  RH  047%=      5-min Rain = 0
KTR1 241942Z 18015KT 31/18 A2975 RMK A01 T03070184  RH  048%=      5-min Rain = 0
KTR1 241943Z 17012KT 31/19 A2974 RMK A01 T03070185  RH  048%=      5-min Rain = 0
KTR1 241944Z 18015G20KT 31/19 A2974 RMK A01 T03090186  RH  048%=      5-min Rain = 0
KTR1 241945Z 17013G19KT 31/19 A2975 RMK A01 T03110185  RH  047%=      5-min Rain = 0
KTR1 241946Z 19012KT 31/19 A2975 RMK A01 T03120191  RH  048%=      5-min Rain = 0
KTR1 241947Z 19016KT 32/18 A2975 RMK A01 T03160183  RH  045%=      5-min Rain = 0
KTR1 241948Z 20013KT 31/18 A2975 RMK A01 T03130182  RH  046%=      5-min Rain = 0
KTR1 241949Z 20010KT 31/18 A2975 RMK A01 T03100180  RH  046%=      5-min Rain = 0
KTR1 241950Z 20012KT 31/18 A2974 RMK A01 T03090181  RH  046%=      5-min Rain = 0
KTR1 241951Z 18015KT 31/18 A2974 RMK A01 T03100183  RH  047%=      5-min Rain = 0
KTR1 241952Z 17013KT 31/18 A2974 RMK A01 T03080184  RH  048%=      5-min Rain = 0
KTR1 241953Z 16014KT 31/19 A2974 RMK A01 T03070187  RH  049%=      5-min Rain = 0
KTR1 241954Z 16015KT 31/18 A2974 RMK A01 T03090182  RH  047%=      5-min Rain = 0
KTR1 241955Z 17017KT 31/18 A2974 RMK A01 T03090183  RH  047%=      5-min Rain = 0
KTR1 241956Z 18016KT 31/18 A2974 RMK A01 T03090184  RH  047%=      5-min Rain = 0
KTR1 241957Z 16017G22KT 31/19 A2974 RMK A01 T03120186  RH  047%=      5-min Rain = 0
KTR1 241958Z 16017G23KT 31/18 A2974 RMK A01 T03130183  RH  046%=      5-min Rain = 0
KTR1 241959Z 17015KT 31/18 A2974 RMK A01 T03120183  RH  046%=      5-min Rain = 0
KTR1 242000Z 17014KT 31/18 A2974 RMK A01 T03080181  RH  047%=      5-min Rain = 0
KTR1 242001Z 18013KT 31/18 A2974 RMK A01 T03050183  RH  048%=      5-min Rain = 0
KTR1 242002Z 17012KT 31/18 A2974 RMK A01 T03050182  RH  048%=      5-min Rain = 0
KTR1 242003Z 18015KT 31/18 A2974 RMK A01 T03080184  RH  048%=      5-min Rain = 0
KTR1 242004Z 19016KT 31/18 A2974 RMK A01 T03120183  RH  046%=      5-min Rain = 0
KTR1 242005Z 19014KT 31/18 A2974 RMK A01 T03120179  RH  045%=      5-min Rain = 0
KTR1 242006Z 19013KT 31/18 A2974 RMK A01 T03090180  RH  046%=      5-min Rain = 0
KTR1 242007Z 19014G19KT 31/18 A2974 RMK A01 T03070183  RH  048%=      5-min Rain = 0
KTR1 242008Z 21015KT 31/18 A2974 RMK A01 T03090182  RH  047%=      5-min Rain = 0
KTR1 242009Z 18013KT 31/18 A2974 RMK A01 T03120184  RH  046%=      5-min Rain = 0
KTR1 242010Z 18014KT 31/18 A2974 RMK A01 T03130182  RH  046%=      5-min Rain = 0
KTR1 242011Z 19014G20KT 31/18 A2974 RMK A01 T03130183  RH  046%=      5-min Rain = 0
KTR1 242012Z 20014KT 31/18 A2974 RMK A01 T03140183  RH  046%=      5-min Rain = 0
KTR1 242013Z 20012G18KT 32/19 A2974 RMK A01 T03150190  RH  047%=      5-min Rain = 0
KTR1 242014Z 20013KT 32/19 A2974 RMK A01 T03170186  RH  046%=      5-min Rain = 0
KTR1 242015Z 20016KT 32/18 A2974 RMK A01 T03170184  RH  045%=      5-min Rain = 0
KTR1 242016Z 20016KT 32/19 A2974 RMK A01 T03160186  RH  046%=      5-min Rain = 0
KTR1 242017Z 20017KT 32/18 A2974 RMK A01 T03170184  RH  045%=      5-min Rain = 0
KTR1 242018Z 19018KT 32/18 A2974 RMK A01 T03170182  RH  045%=      5-min Rain = 0
KTR1 242019Z 18014G19KT 31/18 A2974 RMK A01 T03140180  RH  045%=      5-min Rain = 0
KTR1 242020Z 19012KT 31/19 A2974 RMK A01 T03140185  RH  046%=      5-min Rain = 0
KTR1 242021Z 21013KT 32/18 A2974 RMK A01 T03160182  RH  045%=      5-min Rain = 0
KTR1 242022Z 18015KT 32/18 A2973 RMK A01 T03170184  RH  045%=      5-min Rain = 0
KTR1 242023Z 19017KT 32/18 A2974 RMK A01 T03150182  RH  045%=      5-min Rain = 0
KTR1 242024Z 18015KT 31/18 A2974 RMK A01 T03130184  RH  046%=      5-min Rain = 0
KTR1 242025Z 18014KT 32/18 A2974 RMK A01 T03150180  RH  045%=      5-min Rain = 0
KTR1 242026Z 18016KT 32/18 A2973 RMK A01 T03150181  RH  045%=      5-min Rain = 0
KTR1 242027Z 17013KT 31/18 A2973 RMK A01 T03140180  RH  045%=      5-min Rain = 0
KTR1 242028Z 17013KT 31/18 A2973 RMK A01 T03130180  RH  045%=      5-min Rain = 0
KTR1 242029Z 17013KT 31/18 A2973 RMK A01 T03130181  RH  045%=      5-min Rain = 0
KTR1 242030Z 18012KT 31/18 A2973 RMK A01 T03140180  RH  045%=      5-min Rain = 0
KTR1 242031Z 19012KT 31/18 A2973 RMK A01 T03140181  RH  045%=      5-min Rain = 0
KTR1 242032Z 18011KT 32/19 A2973 RMK A01 T03160185  RH  046%=      5-min Rain = 0
KTR1 242033Z 18012KT 32/18 A2973 RMK A01 T03180184  RH  045%=      5-min Rain = 0
KTR1 242034Z 17012KT 32/18 A2973 RMK A01 T03160181  RH  045%=      5-min Rain = 0
KTR1 242035Z 17010KT 31/18 A2973 RMK A01 T03130183  RH  046%=      5-min Rain = 0
KTR1 242036Z 17015G22KT 31/19 A2973 RMK A01 T03120185  RH  047%=      5-min Rain = 0
KTR1 242037Z 18014KT 31/19 A2973 RMK A01 T03140185  RH  046%=      5-min Rain = 0
KTR1 242038Z 18012KT 32/18 A2973 RMK A01 T03160183  RH  045%=      5-min Rain = 0
KTR1 242039Z 17014KT 32/18 A2973 RMK A01 T03170182  RH  045%=      5-min Rain = 0
KTR1 242040Z 19012KT 32/18 A2973 RMK A01 T03150181  RH  045%=      5-min Rain = 0
KTR1 242041Z 20011KT 31/18 A2973 RMK A01 T03120182  RH  046%=      5-min Rain = 0
KTR1 242042Z 20011KT 31/18 A2973 RMK A01 T03110181  RH  046%=      5-min Rain = 0
KTR1 242043Z 21010G15KT 31/18 A2973 RMK A01 T03090183  RH  047%=      5-min Rain = 0
KTR1 242044Z 18014G19KT 31/18 A2973 RMK A01 T03090182  RH  047%=      5-min Rain = 0
KTR1 242045Z 18015KT 31/18 A2973 RMK A01 T03110182  RH  046%=      5-min Rain = 0
KTR1 242046Z 18014KT 32/18 A2973 RMK A01 T03150182  RH  045%=      5-min Rain = 0
KTR1 242047Z 19012KT 32/18 A2973 RMK A01 T03170184  RH  045%=      5-min Rain = 0
KTR1 242048Z 20009KT 32/18 A2973 RMK A01 T03180184  RH  045%=      5-min Rain = 0
KTR1 242049Z 19011KT 32/18 A2972 RMK A01 T03190183  RH  044%=      5-min Rain = 0
KTR1 242050Z 17014KT 32/18 A2972 RMK A01 T03190184  RH  044%=      5-min Rain = 0
KTR1 242051Z 17011KT 32/19 A2972 RMK A01 T03180185  RH  045%=      5-min Rain = 0
KTR1 242052Z 17012KT 32/18 A2972 RMK A01 T03160183  RH  045%=      5-min Rain = 0
KTR1 242053Z 18010KT 31/18 A2972 RMK A01 T03130181  RH  046%=      5-min Rain = 0
KTR1 242054Z 19012KT 31/18 A2972 RMK A01 T03100181  RH  046%=      5-min Rain = 0
KTR1 242055Z 18013G18KT 31/18 A2972 RMK A01 T03090182  RH  047%=      5-min Rain = 0
KTR1 242056Z 18013KT 31/18 A2972 RMK A01 T03080183  RH  047%=      5-min Rain = 0
KTR1 242057Z 20013KT 31/18 A2972 RMK A01 T03080181  RH  047%=      5-min Rain = 0
KTR1 242058Z 19011KT 31/18 A2972 RMK A01 T03080181  RH  047%=      5-min Rain = 0
KTR1 242059Z 17009KT 31/18 A2972 RMK A01 T03090182  RH  047%=      5-min Rain = 0
KTR1 242100Z 17012KT 31/19 A2972 RMK A01 T03120187  RH  047%=      5-min Rain = 0
KTR1 242101Z 16013KT 31/18 A2972 RMK A01 T03140183  RH  046%=      5-min Rain = 0
KTR1 242102Z 17012KT 31/18 A2972 RMK A01 T03130184  RH  046%=      5-min Rain = 0
KTR1 242103Z 17012KT 31/18 A2972 RMK A01 T03130182  RH  046%=      5-min Rain = 0
KTR1 242104Z 17009KT 31/18 A2972 RMK A01 T03110181  RH  046%=      5-min Rain = 0
KTR1 242105Z 18010KT 31/18 A2972 RMK A01 T03100183  RH  047%=      5-min Rain = 0
KTR1 242106Z 18010KT 31/18 A2972 RMK A01 T03100183  RH  047%=      5-min Rain = 0
KTR1 242107Z 19010KT 31/18 A2972 RMK A01 T03100183  RH  047%=      5-min Rain = 0
KTR1 242108Z 21013KT 31/19 A2971 RMK A01 T03130185  RH  047%=      5-min Rain = 0
KTR1 242109Z 20012KT 31/19 A2972 RMK A01 T03130186  RH  047%=      5-min Rain = 0
KTR1 242110Z 19011KT 31/19 A2971 RMK A01 T03140187  RH  047%=      5-min Rain = 0
KTR1 242111Z 18011KT 32/19 A2972 RMK A01 T03160185  RH  046%=      5-min Rain = 0
KTR1 242112Z 18013KT 32/18 A2971 RMK A01 T03160183  RH  045%=      5-min Rain = 0
KTR1 242113Z 19009KT 32/18 A2972 RMK A01 T03150184  RH  046%=      5-min Rain = 0
KTR1 242114Z 18010KT 31/18 A2971 RMK A01 T03140183  RH  046%=      5-min Rain = 0
KTR1 242115Z 18012KT 31/18 A2971 RMK A01 T03120182  RH  046%=      5-min Rain = 0
KTR1 242116Z 20010KT 31/19 A2971 RMK A01 T03120186  RH  047%=      5-min Rain = 0
KTR1 242117Z 19013KT 31/19 A2971 RMK A01 T03120186  RH  047%=      5-min Rain = 0
KTR1 242118Z 17009KT 31/19 A2971 RMK A01 T03120185  RH  047%=      5-min Rain = 0
KTR1 242119Z 18010KT 31/19 A2972 RMK A01 T03130186  RH  047%=      5-min Rain = 0
KTR1 242120Z 19012KT 31/19 A2971 RMK A01 T03140186  RH  047%=      5-min Rain = 0
KTR1 242121Z 17012KT 31/19 A2971 RMK A01 T03140187  RH  047%=      5-min Rain = 0
KTR1 242122Z 18012KT 31/19 A2971 RMK A01 T03140185  RH  046%=      5-min Rain = 0
KTR1 242123Z 17009KT 31/19 A2971 RMK A01 T03130186  RH  047%=      5-min Rain = 0
KTR1 242124Z 17009KT 31/19 A2971 RMK A01 T03130185  RH  047%=      5-min Rain = 0
KTR1 242125Z 18010KT 31/19 A2971 RMK A01 T03130186  RH  047%=      5-min Rain = 0
KTR1 242126Z 17008KT 32/19 A2971 RMK A01 T03170186  RH  046%=      5-min Rain = 0
KTR1 242127Z 19007KT 32/19 A2971 RMK A01 T03220187  RH  045%=      5-min Rain = 0
KTR1 242128Z 16006KT 33/19 A2971 RMK A01 T03260185  RH  043%=      5-min Rain = 0
KTR1 242129Z 14007KT 33/18 A2971 RMK A01 T03270184  RH  043%=      5-min Rain = 0
KTR1 242130Z 16009KT 33/19 A2971 RMK A01 T03270188  RH  044%=      5-min Rain = 0
KTR1 242131Z 17010KT 33/19 A2971 RMK A01 T03270185  RH  043%=      5-min Rain = 0
KTR1 242132Z 21009KT 33/18 A2971 RMK A01 T03270184  RH  043%=      5-min Rain = 0
KTR1 242133Z 20015KT 33/18 A2971 RMK A01 T03260182  RH  042%=      5-min Rain = 0
KTR1 242134Z 19011KT 32/18 A2971 RMK A01 T03230180  RH  042%=      5-min Rain = 0
KTR1 242135Z 19008KT 32/18 A2971 RMK A01 T03220180  RH  043%=      5-min Rain = 0
KTR1 242136Z 20007KT 32/18 A2971 RMK A01 T03220182  RH  044%=      5-min Rain = 0
KTR1 242137Z 20008KT 32/18 A2971 RMK A01 T03220183  RH  044%=      5-min Rain = 0
KTR1 242138Z 20012KT 32/18 A2971 RMK A01 T03220182  RH  043%=      5-min Rain = 0
KTR1 242139Z 20011KT 32/18 A297 RMK A01 T03220183  RH  044%=      5-min Rain = 0
KTR1 242140Z 18009KT 32/18 A297 RMK A01 T03220181  RH  043%=      5-min Rain = 0
KTR1 242141Z 18010KT 32/18 A297 RMK A01 T03230184  RH  044%=      5-min Rain = 0
KTR1 242142Z 18014KT 33/18 A297 RMK A01 T03260183  RH  043%=      5-min Rain = 0
KTR1 242143Z 18013KT 32/18 A297 RMK A01 T03240182  RH  043%=      5-min Rain = 0
KTR1 242144Z 17012KT 32/18 A297 RMK A01 T03200181  RH  044%=      5-min Rain = 0
KTR1 242145Z 17009KT 32/18 A297 RMK A01 T03170182  RH  045%=      5-min Rain = 0
KTR1 242146Z 17007KT 32/19 A297 RMK A01 T03190185  RH  045%=      5-min Rain = 0
KTR1 242147Z 18006KT 32/19 A297 RMK A01 T03230185  RH  044%=      5-min Rain = 0
KTR1 242148Z 18008KT 33/18 A297 RMK A01 T03250181  RH  042%=      5-min Rain = 0
KTR1 242149Z 18007KT 32/18 A297 RMK A01 T03230180  RH  043%=      5-min Rain = 0
KTR1 242150Z 16009KT 32/18 A297 RMK A01 T03220182  RH  043%=      5-min Rain = 0
KTR1 242151Z 17010KT 32/18 A2969 RMK A01 T03240181  RH  043%=      5-min Rain = 0
KTR1 242152Z 18011KT 33/18 A2969 RMK A01 T03270183  RH  042%=      5-min Rain = 0
KTR1 242153Z 18009KT 33/18 A2969 RMK A01 T03280180  RH  041%=      5-min Rain = 0
KTR1 242154Z 16011KT 33/18 A2969 RMK A01 T03270182  RH  042%=      5-min Rain = 0
KTR1 242155Z 17010KT 33/18 A2969 RMK A01 T03250183  RH  043%=      5-min Rain = 0
KTR1 242156Z 16014KT 32/19 A2969 RMK A01 T03240186  RH  044%=      5-min Rain = 0
KTR1 242157Z 14013KT 33/19 A2969 RMK A01 T03260186  RH  043%=      5-min Rain = 0
KTR1 242158Z 14012KT 33/19 A2969 RMK A01 T03260186  RH  043%=      5-min Rain = 0
KTR1 242159Z 14014KT 32/18 A2969 RMK A01 T03240184  RH  044%=      5-min Rain = 0
KTR1 242200Z 15012KT 32/18 A2969 RMK A01 T03190182  RH  044%=      5-min Rain = 0
KTR1 242201Z 15011KT 32/18 A2969 RMK A01 T03180182  RH  044%=      5-min Rain = 0
KTR1 242202Z 15009KT 32/19 A2968 RMK A01 T03180186  RH  045%=      5-min Rain = 0
KTR1 242203Z 15009KT 32/19 A2968 RMK A01 T03210188  RH  045%=      5-min Rain = 0
KTR1 242204Z 14011KT 32/18 A2968 RMK A01 T03210184  RH  044%=      5-min Rain = 0
KTR1 242205Z 14010KT 32/18 A2968 RMK A01 T03170181  RH  044%=      5-min Rain = 0
KTR1 242206Z 15009KT 31/18 A2968 RMK A01 T03140182  RH  045%=      5-min Rain = 0
KTR1 242207Z 14008KT 32/18 A2968 RMK A01 T03150183  RH  046%=      5-min Rain = 0
KTR1 242208Z 15008KT 32/19 A2968 RMK A01 T03160185  RH  046%=      5-min Rain = 0
KTR1 242209Z 15009KT 32/18 A2968 RMK A01 T03170182  RH  045%=      5-min Rain = 0
KTR1 242210Z 17006KT 32/18 A2968 RMK A01 T03170184  RH  045%=      5-min Rain = 0
KTR1 242211Z 15009KT 32/19 A2968 RMK A01 T03200185  RH  045%=      5-min Rain = 0
KTR1 242212Z 16014KT 32/18 A2968 RMK A01 T03230181  RH  043%=      5-min Rain = 0
KTR1 242213Z 17012KT 32/18 A2968 RMK A01 T03230180  RH  043%=      5-min Rain = 0
KTR1 242214Z 16011KT 32/18 A2968 RMK A01 T03230181  RH  043%=      5-min Rain = 0
KTR1 242215Z 16011KT 32/18 A2967 RMK A01 T03240180  RH  043%=      5-min Rain = 0
KTR1 242216Z 16011KT 32/18 A2967 RMK A01 T03230180  RH  043%=      5-min Rain = 0
KTR1 242217Z 15010KT 32/18 A2967 RMK A01 T03220179  RH  043%=      5-min Rain = 0
KTR1 242218Z 18009KT 32/18 A2967 RMK A01 T03220181  RH  043%=      5-min Rain = 0
KTR1 242219Z 17009KT 32/19 A2967 RMK A01 T03240185  RH  044%=      5-min Rain = 0
KTR1 242220Z 15011KT 33/18 A2967 RMK A01 T03280183  RH  042%=      5-min Rain = 0
KTR1 242221Z 15012KT 33/18 A2967 RMK A01 T03270180  RH  042%=      5-min Rain = 0
KTR1 242222Z 17009KT 33/18 A2967 RMK A01 T03250181  RH  042%=      5-min Rain = 0
KTR1 242223Z 17004KT 33/18 A2967 RMK A01 T03250182  RH  043%=      5-min Rain = 0
KTR1 242224Z 16006KT 33/18 A2966 RMK A01 T03250182  RH  043%=      5-min Rain = 0
KTR1 242225Z 15010KT 33/18 A2966 RMK A01 T03260180  RH  042%=      5-min Rain = 0
KTR1 242226Z 14009KT 33/18 A2966 RMK A01 T03260182  RH  043%=      5-min Rain = 0
KTR1 242227Z 13012KT 33/18 A2966 RMK A01 T03250182  RH  043%=      5-min Rain = 0
KTR1 242228Z 12011KT 32/18 A2966 RMK A01 T03230181  RH  043%=      5-min Rain = 0
KTR1 242229Z 12010KT 32/18 A2966 RMK A01 T03200182  RH  044%=      5-min Rain = 0
KTR1 242230Z 14008KT 32/18 A2966 RMK A01 T03190183  RH  045%=      5-min Rain = 0
KTR1 242231Z 16012KT 32/18 A2966 RMK A01 T03210180  RH  043%=      5-min Rain = 0
KTR1 242232Z 14012KT 32/18 A2966 RMK A01 T03230181  RH  043%=      5-min Rain = 0
KTR1 242233Z 15010KT 32/18 A2966 RMK A01 T03230179  RH  042%=      5-min Rain = 0
KTR1 242234Z 15007KT 32/18 A2966 RMK A01 T03210182  RH  044%=      5-min Rain = 0
KTR1 242235Z 15010KT 32/18 A2966 RMK A01 T03200184  RH  044%=      5-min Rain = 0
KTR1 242236Z 15012KT 32/18 A2966 RMK A01 T03190179  RH  043%=      5-min Rain = 0
KTR1 242237Z 16012KT 32/18 A2966 RMK A01 T03210180  RH  043%=      5-min Rain = 0
KTR1 242238Z 16011KT 32/18 A2966 RMK A01 T03220179  RH  043%=      5-min Rain = 0
KTR1 242239Z 15011KT 32/18 A2966 RMK A01 T03230180  RH  043%=      5-min Rain = 0
KTR1 242240Z 15011KT 32/18 A2966 RMK A01 T03240179  RH  042%=      5-min Rain = 0
KTR1 242241Z 16009KT 33/18 A2966 RMK A01 T03250180  RH  042%=      5-min Rain = 0
KTR1 242242Z 16009KT 33/18 A2966 RMK A01 T03260179  RH  042%=      5-min Rain = 0
KTR1 242243Z 16009KT 33/18 A2966 RMK A01 T03260179  RH  041%=      5-min Rain = 0
KTR1 242244Z 15011KT 33/18 A2966 RMK A01 T03260179  RH  042%=      5-min Rain = 0
KTR1 242245Z 14009KT 33/18 A2966 RMK A01 T03260180  RH  042%=      5-min Rain = 0
KTR1 242246Z 15009KT 33/18 A2965 RMK A01 T03260179  RH  042%=      5-min Rain = 0
KTR1 242247Z 16010KT 33/18 A2966 RMK A01 T03270183  RH  042%=      5-min Rain = 0
KTR1 242248Z 17010KT 33/18 A2966 RMK A01 T03290180  RH  041%=      5-min Rain = 0
KTR1 242249Z 17009KT 33/18 A2966 RMK A01 T03280178  RH  041%=      5-min Rain = 0
KTR1 242250Z 16007KT 33/18 A2965 RMK A01 T03260177  RH  041%=      5-min Rain = 0
KTR1 242251Z 16005KT 33/18 A2965 RMK A01 T03250178  RH  042%=      5-min Rain = 0
KTR1 242252Z 13008KT 33/18 A2965 RMK A01 T03250180  RH  042%=      5-min Rain = 0
KTR1 242253Z 14010KT 33/18 A2965 RMK A01 T03260180  RH  042%=      5-min Rain = 0
KTR1 242254Z 15011KT 33/18 A2965 RMK A01 T03260182  RH  042%=      5-min Rain = 0
KTR1 242255Z 15011KT 33/18 A2965 RMK A01 T03270182  RH  042%=      5-min Rain = 0
KTR1 242256Z 15013KT 33/18 A2965 RMK A01 T03280178  RH  041%=      5-min Rain = 0
KTR1 242257Z 14010KT 33/18 A2965 RMK A01 T03280179  RH  041%=      5-min Rain = 0
KTR1 242258Z 14011KT 33/18 A2965 RMK A01 T03280181  RH  042%=      5-min Rain = 0
KTR1 242259Z 14011KT 33/18 A2965 RMK A01 T03280177  RH  041%=      5-min Rain = 0
KTR1 242300Z 14010KT 33/18 A2965 RMK A01 T03270181  RH  042%=      5-min Rain = 0
KTR1 242301Z 14010KT 33/18 A2965 RMK A01 T03280181  RH  042%=      5-min Rain = 0
KTR1 242302Z 12011KT 33/18 A2965 RMK A01 T03280181  RH  042%=      5-min Rain = 0
KTR1 242303Z 12012KT 33/18 A2965 RMK A01 T03280182  RH  042%=      5-min Rain = 0
KTR1 242304Z 12013KT 33/19 A2965 RMK A01 T03280185  RH  043%=      5-min Rain = 0
KTR1 242305Z 13011KT 33/19 A2965 RMK A01 T03290186  RH  043%=      5-min Rain = 0
KTR1 242306Z 12011KT 33/19 A2965 RMK A01 T03320186  RH  042%=      5-min Rain = 0
KTR1 242307Z 12012KT 33/18 A2965 RMK A01 T03310183  RH  041%=      5-min Rain = 0
KTR1 242308Z 12013KT 33/18 A2965 RMK A01 T03260180  RH  042%=      5-min Rain = 0
KTR1 242309Z 12012KT 32/18 A2965 RMK A01 T03220181  RH  043%=      5-min Rain = 0
KTR1 242310Z 12013KT 32/18 A2965 RMK A01 T03190180  RH  044%=      5-min Rain = 0
KTR1 242311Z 13011KT 32/18 A2965 RMK A01 T03170179  RH  044%=      5-min Rain = 0
KTR1 242312Z 13010KT 32/18 A2965 RMK A01 T03160180  RH  044%=      5-min Rain = 0
KTR1 242313Z 13010KT 32/18 A2965 RMK A01 T03160182  RH  045%=      5-min Rain = 0
KTR1 242314Z 14012KT 32/18 A2965 RMK A01 T03160179  RH  044%=      5-min Rain = 0
KTR1 242315Z 13012KT 32/18 A2965 RMK A01 T03150180  RH  045%=      5-min Rain = 0
KTR1 242316Z 14011KT 31/18 A2965 RMK A01 T03140179  RH  045%=      5-min Rain = 0
KTR1 242317Z 14011KT 31/18 A2965 RMK A01 T03130181  RH  045%=      5-min Rain = 0
KTR1 242318Z 14012KT 31/18 A2965 RMK A01 T03130180  RH  045%=      5-min Rain = 0
KTR1 242319Z 13012KT 32/18 A2965 RMK A01 T03160179  RH  044%=      5-min Rain = 0
KTR1 242320Z 12014KT 32/18 A2965 RMK A01 T03190180  RH  044%=      5-min Rain = 0
KTR1 242321Z 12011KT 32/18 A2965 RMK A01 T03200178  RH  043%=      5-min Rain = 0
KTR1 242322Z 13011KT 32/18 A2965 RMK A01 T03210181  RH  043%=      5-min Rain = 0
KTR1 242323Z 14010KT 32/18 A2965 RMK A01 T03230182  RH  043%=      5-min Rain = 0
KTR1 242324Z 15013KT 33/18 A2965 RMK A01 T03250181  RH  042%=      5-min Rain = 0
KTR1 242325Z 13011KT 33/18 A2965 RMK A01 T03250180  RH  042%=      5-min Rain = 0
KTR1 242326Z 12012KT 33/18 A2965 RMK A01 T03250181  RH  042%=      5-min Rain = 0
KTR1 242327Z 13014KT 32/18 A2965 RMK A01 T03240178  RH  042%=      5-min Rain = 0
KTR1 242328Z 13015KT 32/18 A2965 RMK A01 T03210177  RH  042%=      5-min Rain = 0
KTR1 242329Z 13014KT 32/18 A2965 RMK A01 T03190176  RH  042%=      5-min Rain = 0
KTR1 242330Z 13014KT 32/18 A2965 RMK A01 T03200175  RH  042%=      5-min Rain = 0
KTR1 242331Z 14015KT 32/18 A2965 RMK A01 T03200176  RH  042%=      5-min Rain = 0
KTR1 242332Z 14013KT 32/18 A2965 RMK A01 T03210176  RH  042%=      5-min Rain = 0
KTR1 242333Z 13012KT 32/18 A2965 RMK A01 T03210178  RH  043%=      5-min Rain = 0
KTR1 242334Z 13013KT 32/18 A2965 RMK A01 T03210177  RH  042%=      5-min Rain = 0
KTR1 242335Z 14012KT 32/18 A2965 RMK A01 T03220177  RH  042%=      5-min Rain = 0
KTR1 242336Z 13010KT 32/18 A2965 RMK A01 T03200179  RH  043%=      5-min Rain = 0
KTR1 242337Z 13011KT 32/18 A2965 RMK A01 T03190176  RH  042%=      5-min Rain = 0
KTR1 242338Z 12011KT 32/18 A2965 RMK A01 T03180176  RH  043%=      5-min Rain = 0
KTR1 242339Z 13012KT 32/17 A2965 RMK A01 T03170171  RH  041%=      5-min Rain = 0
KTR1 242340Z 12012KT 32/17 A2965 RMK A01 T03160171  RH  042%=      5-min Rain = 0
KTR1 242341Z 14014KT 32/17 A2965 RMK A01 T03150170  RH  042%=      5-min Rain = 0
KTR1 242342Z 14012KT 31/17 A2965 RMK A01 T03140170  RH  042%=      5-min Rain = 0
KTR1 242343Z 14009KT 31/17 A2965 RMK A01 T03140171  RH  042%=      5-min Rain = 0
KTR1 242344Z 13008KT 31/17 A2965 RMK A01 T03130173  RH  043%=      5-min Rain = 0
KTR1 242345Z 14010KT 31/17 A2964 RMK A01 T03120173  RH  043%=      5-min Rain = 0
KTR1 242346Z 13013KT 31/17 A2964 RMK A01 T03120171  RH  043%=      5-min Rain = 0
KTR1 242347Z 13013KT 31/17 A2964 RMK A01 T03120170  RH  043%=      5-min Rain = 0
KTR1 242348Z 12013KT 31/17 A2964 RMK A01 T03120170  RH  042%=      5-min Rain = 0
KTR1 242349Z 14013KT 31/17 A2964 RMK A01 T03110167  RH  042%=      5-min Rain = 0
KTR1 242350Z 13013G18KT 31/17 A2964 RMK A01 T03120168  RH  042%=      5-min Rain = 0
KTR1 242351Z 13014KT 31/17 A2964 RMK A01 T03120168  RH  042%=      5-min Rain = 0
KTR1 242352Z 13014KT 31/17 A2964 RMK A01 T03120169  RH  042%=      5-min Rain = 0
KTR1 242353Z 13012KT 31/17 A2964 RMK A01 T03130169  RH  042%=      5-min Rain = 0
KTR1 242354Z 13010G16KT 31/17 A2964 RMK A01 T03130171  RH  042%=      5-min Rain = 0
KTR1 242355Z 13010KT 31/17 A2964 RMK A01 T03130173  RH  043%=      5-min Rain = 0
KTR1 242356Z 14011KT 31/17 A2964 RMK A01 T03130172  RH  043%=      5-min Rain = 0
KTR1 242357Z 14013KT 31/17 A2964 RMK A01 T03130172  RH  043%=      5-min Rain = 0
KTR1 242358Z 14011KT 31/17 A2964 RMK A01 T03130172  RH  043%=      5-min Rain = 0
KTR1 242359Z 14013KT 31/17 A2964 RMK A01 T03130172  RH  043%=      5-min Rain = 0
KTR1 250000Z 14014KT 31/17 A2964 RMK A01 T03130171  RH  043%=      5-min Rain = 0
KTR1 250001Z 14013G18KT 31/17 A2964 RMK A01 T03130172  RH  043%=      5-min Rain = 0
KTR1 250002Z 14015KT 31/17 A2964 RMK A01 T03120172  RH  043%=      5-min Rain = 0
KTR1 250003Z 14014KT 31/17 A2964 RMK A01 T03120172  RH  043%=      5-min Rain = 0
KTR1 250004Z 14012KT 31/17 A2964 RMK A01 T03120172  RH  043%=      5-min Rain = 0
KTR1 250005Z 14011KT 31/17 A2964 RMK A01 T03120172  RH  043%=      5-min Rain = 0
KTR1 250006Z 14012KT 31/17 A2963 RMK A01 T03110172  RH  044%=      5-min Rain = 0
KTR1 250007Z 14010KT 31/17 A2963 RMK A01 T03110173  RH  044%=      5-min Rain = 0
KTR1 250008Z 14009KT 31/18 A2963 RMK A01 T03100175  RH  044%=      5-min Rain = 0
KTR1 250009Z 13010KT 31/17 A2963 RMK A01 T03090173  RH  044%=      5-min Rain = 0
KTR1 250010Z 13012KT 31/17 A2963 RMK A01 T03090174  RH  044%=      5-min Rain = 0
KTR1 250011Z 13015KT 31/17 A2963 RMK A01 T03090172  RH  044%=      5-min Rain = 0
KTR1 250012Z 13013KT 31/17 A2963 RMK A01 T03090173  RH  044%=      5-min Rain = 0
KTR1 250013Z 13012KT 31/17 A2963 RMK A01 T03090173  RH  044%=      5-min Rain = 0
KTR1 250014Z 13012KT 31/17 A2963 RMK A01 T03090174  RH  044%=      5-min Rain = 0
KTR1 250015Z 13015G20KT 31/18 A2963 RMK A01 T03090175  RH  045%=      5-min Rain = 0
KTR1 250016Z 12017KT 31/18 A2963 RMK A01 T03080177  RH  046%=      5-min Rain = 0
KTR1 250017Z 11013KT 31/18 A2963 RMK A01 T03070180  RH  047%=      5-min Rain = 0
KTR1 250018Z 11016KT 31/18 A2963 RMK A01 T03050182  RH  048%=      5-min Rain = 0
KTR1 250019Z 11013KT 30/18 A2963 RMK A01 T03040183  RH  048%=      5-min Rain = 0
KTR1 250020Z 11014KT 30/18 A2962 RMK A01 T03030184  RH  049%=      5-min Rain = 0
KTR1 250021Z 11015KT 30/18 A2962 RMK A01 T03020184  RH  049%=      5-min Rain = 0
KTR1 250022Z 11014KT 30/18 A2962 RMK A01 T03020184  RH  049%=      5-min Rain = 0
KTR1 250023Z 11014KT 30/19 A2962 RMK A01 T03010185  RH  050%=      5-min Rain = 0
KTR1 250024Z 11014KT 30/19 A2962 RMK A01 T03010185  RH  050%=      5-min Rain = 0
KTR1 250025Z 12013KT 30/19 A2962 RMK A01 T03010185  RH  050%=      5-min Rain = 0
KTR1 250026Z 11015KT 30/19 A2962 RMK A01 T03010185  RH  050%=      5-min Rain = 0
KTR1 250027Z 11014KT 30/19 A2962 RMK A01 T03010186  RH  050%=      5-min Rain = 0
KTR1 250028Z 12014KT 30/19 A2962 RMK A01 T03000185  RH  050%=      5-min Rain = 0
KTR1 250029Z 11013KT 30/19 A2962 RMK A01 T03000185  RH  050%=      5-min Rain = 0
KTR1 250030Z 11013KT 30/19 A2962 RMK A01 T03000186  RH  051%=      5-min Rain = 0
KTR1 250031Z 12016G22KT 30/19 A2963 RMK A01 T02990186  RH  050%=      5-min Rain = 0
KTR1 250032Z 12018G25KT 30/18 A2963 RMK A01 T02990184  RH  050%=      5-min Rain = 0
KTR1 250033Z 12031G40KT 30/19 A2964 RMK A01 T02980186  RH  051%=      5-min Rain = 0
KTR1 250034Z 10027KT 29/19 A2964 RMK A01 T02880187  RH  055%=      5-min Rain = 0
KTR1 250035Z 11026G33KT 28/19 A2965 RMK A01 T02780188  RH  058%=      5-min Rain = 0
KTR1 250036Z 11023G29KT 27/19 A2965 RMK A01 T02720189  RH  060%=      5-min Rain = 0
KTR1 250037Z 12025G30KT 27/19 A2965 RMK A01 T02680189  RH  062%=      5-min Rain = 0
KTR1 250038Z 11026G32KT 27/19 A2965 RMK A01 T02660190  RH  063%=      5-min Rain = 0
KTR1 250039Z 11025KT 26/19 A2965 RMK A01 T02640190  RH  064%=      5-min Rain = 0
KTR1 250040Z 11022KT 26/19 A2964 RMK A01 T02620191  RH  065%=      5-min Rain = 0
KTR1 250041Z 12024G31KT 26/19 A2964 RMK A01 T02610191  RH  065%=      5-min Rain = 0
KTR1 250042Z 12025G32KT 26/19 A2965 RMK A01 T02610190  RH  065%=      5-min Rain = 0
KTR1 250043Z 12024G31KT 26/19 A2965 RMK A01 T02600190  RH  065%=      5-min Rain = 0
KTR1 250044Z 12023G30KT 26/19 A2965 RMK A01 T02590190  RH  066%=      5-min Rain = 0
KTR1 250045Z 12024KT 26/19 A2965 RMK A01 T02580190  RH  066%=      5-min Rain = 0
KTR1 250046Z 12019KT 26/19 A2965 RMK A01 T02580190  RH  066%=      5-min Rain = 0
KTR1 250047Z 11019KT 26/19 A2965 RMK A01 T02580191  RH  067%=      5-min Rain = 0
KTR1 250048Z 12020KT 26/19 A2965 RMK A01 T02570191  RH  067%=      5-min Rain = 0
KTR1 250049Z 12019G24KT 26/19 A2965 RMK A01 T02570191  RH  067%=      5-min Rain = 0
KTR1 250050Z 12017G24KT 26/19 A2965 RMK A01 T02560191  RH  067%=      5-min Rain = 0
KTR1 250051Z 12020G25KT 26/19 A2965 RMK A01 T02560190  RH  067%=      5-min Rain = 0
KTR1 250052Z 12017KT 26/19 A2965 RMK A01 T02550189  RH  067%=      5-min Rain = 0
KTR1 250053Z 13020G26KT 26/19 A2965 RMK A01 T02550189  RH  067%=      5-min Rain = 0
KTR1 250054Z 12023G29KT 26/19 A2965 RMK A01 T02550187  RH  066%=      5-min Rain = 0
KTR1 250055Z 12020G25KT 25/19 A2965 RMK A01 T02540187  RH  066%=      5-min Rain = 0
KTR1 250056Z 12022G28KT 25/19 A2965 RMK A01 T02540187  RH  066%=      5-min Rain = 0
KTR1 250057Z 12018KT 25/19 A2965 RMK A01 T02530187  RH  067%=      5-min Rain = 0
KTR1 250058Z 12018KT 25/19 A2964 RMK A01 T02530187  RH  067%=      5-min Rain = 0
KTR1 250059Z 12018G23KT 25/19 A2965 RMK A01 T02520186  RH  067%=      5-min Rain = 0
KTR1 250100Z 12013G18KT 25/19 A2965 RMK A01 T02520187  RH  067%=      5-min Rain = 0
KTR1 250101Z 12015G20KT 25/19 A2965 RMK A01 T02510187  RH  068%=      5-min Rain = 0
KTR1 250102Z 12013KT 25/19 A2965 RMK A01 T02510187  RH  068%=      5-min Rain = 0
KTR1 250103Z 13015KT 25/19 A2965 RMK A01 T02510187  RH  068%=      5-min Rain = 0
KTR1 250104Z 13015KT 25/19 A2966 RMK A01 T02510187  RH  068%=      5-min Rain = 0
KTR1 250105Z 12016G26KT 25/19 A2966 RMK A01 T02500186  RH  067%=      5-min Rain = 0
KTR1 250106Z 13021G30KT 25/19 A2966 RMK A01 T02500185  RH  067%=      5-min Rain = 0
KTR1 250107Z 12022G30KT 25/19 A2966 RMK A01 T02500185  RH  067%=      5-min Rain = 0
KTR1 250108Z 13027G32KT 25/18 A2966 RMK A01 T02490184  RH  067%=      5-min Rain = 0
KTR1 250109Z 12023G30KT 25/18 A2966 RMK A01 T02480184  RH  067%=      5-min Rain = 0
KTR1 250110Z 12024G29KT 25/18 A2966 RMK A01 T02480183  RH  067%=      5-min Rain = 0
KTR1 250111Z 13021G26KT 25/18 A2966 RMK A01 T02470184  RH  068%=      5-min Rain = 0
KTR1 250112Z 13021G26KT 25/18 A2967 RMK A01 T02470184  RH  068%=      5-min Rain = 0
KTR1 250113Z 12017KT 25/18 A2967 RMK A01 T02460184  RH  068%=      5-min Rain = 0
KTR1 250114Z 13020G30KT 25/19 A2967 RMK A01 T02460185  RH  069%=      5-min Rain = 0
KTR1 250115Z 12020G27KT 25/18 A2967 RMK A01 T02450184  RH  069%=      5-min Rain = 0
KTR1 250116Z 13022KT 24/18 A2967 RMK A01 T02440184  RH  069%=      5-min Rain = 0
KTR1 250117Z 13021KT 24/18 A2967 RMK A01 T02440184  RH  069%=      5-min Rain = 0
KTR1 250118Z 13018G23KT 24/18 A2967 RMK A01 T02440184  RH  069%=      5-min Rain = 0
KTR1 250119Z 12016KT 24/19 A2967 RMK A01 T02430185  RH  070%=      5-min Rain = 0
KTR1 250120Z 13020G26KT 24/19 A2966 RMK A01 T02430185  RH  070%=      5-min Rain = 0
KTR1 250121Z 13018G23KT 24/18 A2966 RMK A01 T02430184  RH  070%=      5-min Rain = 0
KTR1 250122Z 12018G23KT 24/19 A2967 RMK A01 T02430185  RH  070%=      5-min Rain = 0
KTR1 250123Z 13017G22KT 24/19 A2967 RMK A01 T02420185  RH  070%=      5-min Rain = 0
KTR1 250124Z 13017G23KT 24/19 A2967 RMK A01 T02410185  RH  071%=      5-min Rain = 0
KTR1 250125Z 13014G20KT 24/19 A2967 RMK A01 T02410185  RH  071%=      5-min Rain = 0
KTR1 250126Z 13019KT 24/19 A2967 RMK A01 T02400185  RH  071%=      5-min Rain = 0
KTR1 250127Z 13021G26KT 24/19 A2967 RMK A01 T02400185  RH  071%=      5-min Rain = 0
KTR1 250128Z 13021KT 24/18 A2967 RMK A01 T02400184  RH  071%=      5-min Rain = 0
KTR1 250129Z 13020G27KT 24/18 A2967 RMK A01 T02390184  RH  071%=      5-min Rain = 0
KTR1 250130Z 13019G25KT 24/18 A2967 RMK A01 T02390184  RH  071%=      5-min Rain = 0
KTR1 250131Z 13016G23KT 24/19 A2967 RMK A01 T02390185  RH  072%=      5-min Rain = 0
KTR1 250132Z 12017G22KT 24/18 A2967 RMK A01 T02380184  RH  072%=      5-min Rain = 0
KTR1 250133Z 12017G22KT 24/18 A2967 RMK A01 T02380184  RH  072%=      5-min Rain = 0
KTR1 250134Z 13021KT 24/18 A2967 RMK A01 T02380183  RH  072%=      5-min Rain = 0
KTR1 250135Z 13021KT 24/18 A2966 RMK A01 T02380183  RH  071%=      5-min Rain = 0
KTR1 250136Z 13018KT 24/18 A2966 RMK A01 T02380183  RH  072%=      5-min Rain = 0
KTR1 250137Z 13018KT 24/18 A2966 RMK A01 T02370183  RH  072%=      5-min Rain = 0
KTR1 250138Z 12019KT 24/18 A2966 RMK A01 T02370184  RH  072%=      5-min Rain = 0
KTR1 250139Z 12017KT 24/18 A2966 RMK A01 T02370184  RH  072%=      5-min Rain = 0
KTR1 250140Z 12017KT 24/18 A2966 RMK A01 T02370183  RH  072%=      5-min Rain = 0
KTR1 250141Z 12017KT 24/18 A2966 RMK A01 T02370183  RH  072%=      5-min Rain = 0
KTR1 250142Z 13014KT 24/18 A2966 RMK A01 T02370183  RH  072%=      5-min Rain = 0
KTR1 250143Z 12018KT 24/18 A2967 RMK A01 T02370183  RH  072%=      5-min Rain = 0
KTR1 250144Z 12016KT 24/18 A2967 RMK A01 T02370183  RH  072%=      5-min Rain = 0
KTR1 250145Z 13014KT 24/18 A2967 RMK A01 T02370182  RH  071%=      5-min Rain = 0
KTR1 250146Z 12016KT 24/18 A2967 RMK A01 T02370182  RH  071%=      5-min Rain = 0
KTR1 250147Z 12014KT 24/18 A2967 RMK A01 T02370181  RH  071%=      5-min Rain = 0
KTR1 250148Z 12014G19KT 24/18 A2967 RMK A01 T02370182  RH  071%=      5-min Rain = 0
KTR1 250149Z 12017KT 24/18 A2967 RMK A01 T02370181  RH  071%=      5-min Rain = 0
KTR1 250150Z 12016KT 24/18 A2967 RMK A01 T02370180  RH  071%=      5-min Rain = 0
KTR1 250151Z 12013KT 24/18 A2968 RMK A01 T02370181  RH  071%=      5-min Rain = 0
KTR1 250152Z 12012KT 24/18 A2968 RMK A01 T02360181  RH  071%=      5-min Rain = 0
KTR1 250153Z 13013KT 24/18 A2969 RMK A01 T02360181  RH  071%=      5-min Rain = 0
KTR1 250154Z 12014KT 24/18 A2969 RMK A01 T02360180  RH  071%=      5-min Rain = 0
KTR1 250155Z 13013KT 24/18 A2969 RMK A01 T02350180  RH  071%=      5-min Rain = 0
KTR1 250156Z 13017KT 24/18 A2969 RMK A01 T02350179  RH  070%=      5-min Rain = 0
KTR1 250157Z 13019G24KT 24/18 A2969 RMK A01 T02350175  RH  069%=      5-min Rain = 0
KTR1 250158Z 13016KT 24/17 A2969 RMK A01 T02360172  RH  067%=      5-min Rain = 0
KTR1 250159Z 13014G20KT 24/17 A297 RMK A01 T02370173  RH  067%=      5-min Rain = 0
KTR1 250200Z 13014KT 24/17 A297 RMK A01 T02370172  RH  067%=      5-min Rain = 0
KTR1 250201Z 13015G20KT 24/17 A297 RMK A01 T02370171  RH  067%=      5-min Rain = 0
KTR1 250202Z 13017KT 24/17 A297 RMK A01 T02370170  RH  066%=      5-min Rain = 0
KTR1 250203Z 14016G22KT 24/17 A2971 RMK A01 T02370170  RH  066%=      5-min Rain = 0
KTR1 250204Z 14015G20KT 24/17 A2971 RMK A01 T02370171  RH  066%=      5-min Rain = 0
KTR1 250205Z 14013G18KT 24/17 A2971 RMK A01 T02370170  RH  066%=      5-min Rain = 0
KTR1 250206Z 14016G21KT 24/17 A2971 RMK A01 T02370170  RH  066%=      5-min Rain = 0
KTR1 250207Z 14015KT 24/17 A2972 RMK A01 T02370168  RH  066%=      5-min Rain = 0
KTR1 250208Z 15014KT 24/17 A2972 RMK A01 T02370169  RH  066%=      5-min Rain = 0
KTR1 250209Z 15014KT 24/17 A2972 RMK A01 T02370170  RH  066%=      5-min Rain = 0
KTR1 250210Z 15014KT 24/17 A2972 RMK A01 T02370169  RH  066%=      5-min Rain = 0
KTR1 250211Z 15011KT 24/17 A2972 RMK A01 T02370169  RH  066%=      5-min Rain = 0
KTR1 250212Z 15013KT 24/17 A2972 RMK A01 T02360169  RH  066%=      5-min Rain = 0
KTR1 250213Z 15010G15KT 24/17 A2972 RMK A01 T02360170  RH  066%=      5-min Rain = 0
KTR1 250214Z 15012KT 24/17 A2971 RMK A01 T02360170  RH  066%=      5-min Rain = 0
KTR1 250215Z 14012KT 24/17 A2971 RMK A01 T02360169  RH  066%=      5-min Rain = 0
KTR1 250216Z 14011KT 24/17 A2971 RMK A01 T02350169  RH  066%=      5-min Rain = 0
KTR1 250217Z 14012KT 24/17 A2971 RMK A01 T02350169  RH  066%=      5-min Rain = 0
KTR1 250218Z 14013KT 24/17 A2971 RMK A01 T02350167  RH  066%=      5-min Rain = 0
KTR1 250219Z 14012KT 24/17 A2971 RMK A01 T02350168  RH  066%=      5-min Rain = 0
KTR1 250220Z 14012KT 23/17 A2971 RMK A01 T02340167  RH  066%=      5-min Rain = 0
KTR1 250221Z 13012KT 23/17 A2971 RMK A01 T02340167  RH  066%=      5-min Rain = 0
KTR1 250222Z 14010KT 23/17 A2972 RMK A01 T02340167  RH  066%=      5-min Rain = 0
KTR1 250223Z 14011KT 24/17 A2972 RMK A01 T02350167  RH  066%=      5-min Rain = 0
KTR1 250224Z 15012KT 24/17 A2973 RMK A01 T02350167  RH  066%=      5-min Rain = 0
KTR1 250225Z 16009G14KT 24/17 A2974 RMK A01 T02350166  RH  065%=      5-min Rain = 0
KTR1 250226Z 17011KT 24/17 A2975 RMK A01 T02350167  RH  066%=      5-min Rain = 0
KTR1 250227Z 18012KT 24/17 A2976 RMK A01 T02350166  RH  065%=      5-min Rain = 0
KTR1 250228Z 19011KT 24/17 A2977 RMK A01 T02350166  RH  065%=      5-min Rain = 0
KTR1 250229Z 21010KT 24/17 A2977 RMK A01 T02360167  RH  065%=      5-min Rain = 0
KTR1 250230Z 21012KT 24/17 A2978 RMK A01 T02360167  RH  065%=      5-min Rain = 0
KTR1 250231Z 22013KT 24/17 A2978 RMK A01 T02360167  RH  065%=      5-min Rain = 0
KTR1 250232Z 22012KT 24/17 A2979 RMK A01 T02360168  RH  065%=      5-min Rain = 0
KTR1 250233Z 24012KT 24/17 A2979 RMK A01 T02360169  RH  066%=      5-min Rain = 0
KTR1 250234Z 24014KT 24/16 A2979 RMK A01 T02350161  RH  063%=      5-min Rain = 0
KTR1 250235Z 27011KT 23/15 A298 RMK A01 T02310152  RH  061%=      5-min Rain = 0
KTR1 250236Z 29010KT 23/15 A298 RMK A01 T02270149  RH  061%=      5-min Rain = 0
KTR1 250237Z 29010G15KT 23/15 A298 RMK A01 T02250148  RH  062%=      5-min Rain = 0
KTR1 250238Z 29012KT 22/14 A298 RMK A01 T02240137  RH  058%=      5-min Rain = 0
KTR1 250239Z 31015G21KT 22/13 A2981 RMK A01 T02220134  RH  057%=      5-min Rain = 0
KTR1 250240Z 30021G28KT 22/13 A2981 RMK A01 T02180131  RH  058%=      5-min Rain = 0
KTR1 250241Z 30025KT 21/13 A298 RMK A01 T02130132  RH  060%=      5-min Rain = 0
KTR1 250242Z 30028KT 21/14 A298 RMK A01 T02070136  RH  064%=      5-min Rain = 0
KTR1 250243Z 30023G28KT 20/14 A298 RMK A01 T02030138  RH  066%=      5-min Rain = 0
KTR1 250244Z 30021G26KT 20/14 A2981 RMK A01 T02020140  RH  068%=      5-min Rain = 0
KTR1 250245Z 32022KT 20/14 A2981 RMK A01 T02000141  RH  069%=      5-min Rain = 0
KTR1 250246Z 32021KT 20/14 A2982 RMK A01 T01980143  RH  070%=      5-min Rain = 0
KTR1 250247Z 33022KT 20/14 A2981 RMK A01 T01950144  RH  072%=      5-min Rain = 0
KTR1 250248Z 32020KT 19/15 A2981 RMK A01 T01910146  RH  075%=      5-min Rain = 0
KTR1 250249Z 32021KT 19/15 A2982 RMK A01 T01890148  RH  077%=      5-min Rain = 0
KTR1 250250Z 32014G20KT 19/15 A2982 RMK A01 T01850149  RH  079%=      5-min Rain = 0
KTR1 250251Z 33015KT 18/15 A2983 RMK A01 T01830150  RH  081%=      5-min Rain = 0
KTR1 250252Z 33014KT 18/15 A2983 RMK A01 T01810152  RH  083%=      5-min Rain = 0
KTR1 250253Z 34013KT 18/15 A2983 RMK A01 T01790152  RH  084%=      5-min Rain = 0
KTR1 250254Z 00011KT 18/15 A2983 RMK A01 T01780153  RH  085%=      5-min Rain = 0
KTR1 250255Z 00012KT 18/15 A2984 RMK A01 T01760153  RH  086%=      5-min Rain = 0
KTR1 250256Z 35011KT 18/15 A2985 RMK A01 T01750154  RH  087%=      5-min Rain = 0
KTR1 250257Z 34013KT 17/16 A2985 RMK A01 T01740155  RH  089%=      5-min Rain = 0.01
KTR1 250258Z 33014KT 17/16 A2986 RMK A01 T01720155  RH  090%=      5-min Rain = 0.02
KTR1 250259Z 32013KT 17/16 A2986 RMK A01 T01700156  RH  091%=      5-min Rain = 0.01
KTR1 250300Z 32011G16KT 17/16 A2986 RMK A01 T01690157  RH  092%=      5-min Rain = 0.02
KTR1 250301Z 31010KT 17/16 A2987 RMK A01 T01690159  RH  093%=      5-min Rain = 0.02
KTR1 250302Z 30010KT 17/16 A2987 RMK A01 T01690160  RH  094%=      5-min Rain = 0.02
KTR1 250303Z 29008KT 17/16 A2987 RMK A01 T01690161  RH  095%=      5-min Rain = 0.05
KTR1 250304Z 29010KT 17/16 A2988 RMK A01 T01690161  RH  095%=      5-min Rain = 0.04
KTR1 250305Z 30008KT 17/16 A2988 RMK A01 T01690161  RH  095%=      5-min Rain = 0.06
KTR1 250306Z 30009KT 17/16 A2988 RMK A01 T01700162  RH  095%=      5-min Rain = 0.07
KTR1 250307Z 30009KT 17/16 A2988 RMK A01 T01690162  RH  096%=      5-min Rain = 0.09
KTR1 250308Z 31008KT 17/16 A2987 RMK A01 T01690162  RH  096%=      5-min Rain = 0.05
KTR1 250309Z 31010KT 17/16 A2987 RMK A01 T01680162  RH  096%=      5-min Rain = 0.04
KTR1 250310Z 30010G16KT 17/16 A2986 RMK A01 T01680161  RH  096%=      5-min Rain = 0.04
KTR1 250311Z 29012KT 17/16 A2986 RMK A01 T01680161  RH  096%=      5-min Rain = 0.04
KTR1 250312Z 29011KT 17/16 A2985 RMK A01 T01680162  RH  096%=      5-min Rain = 0.03
KTR1 250313Z 29012KT 17/16 A2985 RMK A01 T01670161  RH  096%=      5-min Rain = 0.02
KTR1 250314Z 28012KT 17/16 A2984 RMK A01 T01670161  RH  096%=      5-min Rain = 0.01
KTR1 250315Z 28014KT 17/16 A2983 RMK A01 T01660160  RH  096%=      5-min Rain = 0.02
KTR1 250316Z 28012KT 17/16 A2983 RMK A01 T01660160  RH  096%=      5-min Rain = 0.01
KTR1 250317Z 27012KT 17/16 A2983 RMK A01 T01660160  RH  096%=      5-min Rain = 0.02
KTR1 250318Z 27010KT 17/16 A2983 RMK A01 T01660160  RH  096%=      5-min Rain = 0.02
KTR1 250319Z 27012KT 17/16 A2983 RMK A01 T01660161  RH  096%=      5-min Rain = 0.01
KTR1 250320Z 28011KT 17/16 A2983 RMK A01 T01660160  RH  096%=      5-min Rain = 0.01
KTR1 250321Z 28010KT 17/16 A2983 RMK A01 T01660160  RH  096%=      5-min Rain = 0.01
KTR1 250322Z 27008KT 17/16 A2983 RMK A01 T01660160  RH  097%=      5-min Rain = 0.01
KTR1 250323Z 27009KT 17/16 A2983 RMK A01 T01660160  RH  097%=      5-min Rain = 0.01
KTR1 250324Z 28009KT 17/16 A2983 RMK A01 T01660160  RH  097%=      5-min Rain = 0.01
KTR1 250325Z 28009KT 17/16 A2983 RMK A01 T01660160  RH  097%=      5-min Rain = 0.01
KTR1 250326Z 28008KT 17/16 A2983 RMK A01 T01660161  RH  097%=      5-min Rain = 0
KTR1 250327Z 29007KT 17/16 A2984 RMK A01 T01660161  RH  097%=      5-min Rain = 0.01
KTR1 250328Z 28007KT 17/16 A2984 RMK A01 T01660161  RH  097%=      5-min Rain = 0.01
KTR1 250329Z 28007KT 17/16 A2985 RMK A01 T01660161  RH  097%=      5-min Rain = 0
KTR1 250330Z 27007KT 17/16 A2985 RMK A01 T01660161  RH  097%=      5-min Rain = 0.01
KTR1 250331Z 28006KT 17/16 A2985 RMK A01 T01660161  RH  097%=      5-min Rain = 0
KTR1 250332Z 30004KT 17/16 A2986 RMK A01 T01670161  RH  097%=      5-min Rain = 0.01
KTR1 250333Z 30004KT 17/16 A2986 RMK A01 T01670161  RH  097%=      5-min Rain = 0
KTR1 250334Z 30004KT 17/16 A2986 RMK A01 T01670161  RH  096%=      5-min Rain = 0.01
KTR1 250335Z 31004KT 17/16 A2986 RMK A01 T01670161  RH  096%=      5-min Rain = 0
KTR1 250336Z 32005KT 17/16 A2986 RMK A01 T01670161  RH  096%=      5-min Rain = 0
KTR1 250337Z 33004KT 17/16 A2985 RMK A01 T01670161  RH  097%=      5-min Rain = 0
KTR1 250338Z 34005KT 17/16 A2985 RMK A01 T01670161  RH  097%=      5-min Rain = 0.01
KTR1 250339Z 34005KT 17/16 A2985 RMK A01 T01670161  RH  097%=      5-min Rain = 0
KTR1 250340Z 34005KT 17/16 A2985 RMK A01 T01670161  RH  097%=      5-min Rain = 0
KTR1 250341Z 34005KT 17/16 A2984 RMK A01 T01670162  RH  097%=      5-min Rain = 0.01
KTR1 250342Z 34006KT 17/16 A2984 RMK A01 T01670162  RH  097%=      5-min Rain = 0
KTR1 250343Z 34007KT 17/16 A2984 RMK A01 T01670162  RH  097%=      5-min Rain = 0
KTR1 250344Z 34007KT 17/16 A2983 RMK A01 T01670162  RH  097%=      5-min Rain = 0.01
KTR1 250345Z 33008KT 17/16 A2983 RMK A01 T01670162  RH  097%=      5-min Rain = 0
KTR1 250346Z 33008KT 17/16 A2983 RMK A01 T01670162  RH  097%=      5-min Rain = 0
KTR1 250347Z 33009KT 17/16 A2983 RMK A01 T01670162  RH  097%=      5-min Rain = 0.01
KTR1 250348Z 33009KT 17/16 A2983 RMK A01 T01660161  RH  097%=      5-min Rain = 0
KTR1 250349Z 33008KT 17/16 A2983 RMK A01 T01660161  RH  097%=      5-min Rain = 0.01
KTR1 250350Z 32008KT 17/16 A2983 RMK A01 T01660161  RH  097%=      5-min Rain = 0
KTR1 250351Z 33011KT 17/16 A2983 RMK A01 T01670161  RH  097%=      5-min Rain = 0
KTR1 250352Z 33010KT 17/16 A2983 RMK A01 T01670161  RH  096%=      5-min Rain = 0.01
KTR1 250353Z 33008KT 17/16 A2983 RMK A01 T01680162  RH  096%=      5-min Rain = 0
KTR1 250354Z 33008KT 17/16 A2983 RMK A01 T01680162  RH  096%=      5-min Rain = 0
KTR1 250355Z 33009KT 17/16 A2983 RMK A01 T01680162  RH  096%=      5-min Rain = 0
KTR1 250356Z 34008KT 17/16 A2983 RMK A01 T01680162  RH  096%=      5-min Rain = 0.01
KTR1 250357Z 34007KT 17/16 A2983 RMK A01 T01680162  RH  096%=      5-min Rain = 0
KTR1 250358Z 35006KT 17/16 A2983 RMK A01 T01680162  RH  096%=      5-min Rain = 0
KTR1 250359Z 35007KT 17/16 A2983 RMK A01 T01690163  RH  096%=      5-min Rain = 0
KTR1 250400Z 36006KT 17/16 A2983 RMK A01 T01680163  RH  096%=      5-min Rain = 0.01
KTR1 250401Z 00006KT 17/16 A2983 RMK A01 T01680162  RH  096%=      5-min Rain = 0
KTR1 250402Z 01006KT 17/16 A2983 RMK A01 T01690163  RH  096%=      5-min Rain = 0
KTR1 250403Z 01006KT 17/16 A2983 RMK A01 T01690163  RH  096%=      5-min Rain = 0
KTR1 250404Z 02006KT 17/16 A2983 RMK A01 T01690163  RH  096%=      5-min Rain = 0.01
KTR1 250405Z 02007KT 17/16 A2983 RMK A01 T01700164  RH  096%=      5-min Rain = 0
KTR1 250406Z 02007KT 17/16 A2983 RMK A01 T01690164  RH  096%=      5-min Rain = 0
KTR1 250407Z 02007KT 17/16 A2983 RMK A01 T01690164  RH  096%=      5-min Rain = 0.01
KTR1 250408Z 02008KT 17/16 A2983 RMK A01 T01690164  RH  096%=      5-min Rain = 0
KTR1 250409Z 02007KT 17/16 A2983 RMK A01 T01690163  RH  096%=      5-min Rain = 0.01
KTR1 250410Z 02007KT 17/16 A2983 RMK A01 T01690163  RH  096%=      5-min Rain = 0
KTR1 250411Z 01007KT 17/16 A2983 RMK A01 T01690163  RH  096%=      5-min Rain = 0.01
KTR1 250412Z 01008KT 17/16 A2983 RMK A01 T01690163  RH  096%=      5-min Rain = 0
KTR1 250413Z 01008KT 17/16 A2983 RMK A01 T01680163  RH  096%=      5-min Rain = 0.01
KTR1 250414Z 01008KT 17/16 A2983 RMK A01 T01680163  RH  097%=      5-min Rain = 0
KTR1 250415Z 00007KT 17/16 A2983 RMK A01 T01680163  RH  096%=      5-min Rain = 0.01
KTR1 250416Z 36007KT 17/16 A2983 RMK A01 T01690163  RH  096%=      5-min Rain = 0
KTR1 250417Z 36007KT 17/16 A2984 RMK A01 T01690163  RH  097%=      5-min Rain = 0.01
KTR1 250418Z 36007KT 17/16 A2984 RMK A01 T01690163  RH  097%=      5-min Rain = 0
KTR1 250419Z 36008KT 17/16 A2984 RMK A01 T01680163  RH  097%=      5-min Rain = 0.01
KTR1 250420Z 00007KT 17/16 A2984 RMK A01 T01680163  RH  097%=      5-min Rain = 0
KTR1 250421Z 00009KT 17/16 A2984 RMK A01 T01680163  RH  097%=      5-min Rain = 0
KTR1 250422Z 00008KT 17/16 A2984 RMK A01 T01680162  RH  096%=      5-min Rain = 0.01
KTR1 250423Z 00008KT 17/16 A2984 RMK A01 T01680162  RH  096%=      5-min Rain = 0
KTR1 250424Z 01009KT 17/16 A2984 RMK A01 T01680162  RH  096%=      5-min Rain = 0
KTR1 250425Z 01010KT 17/16 A2984 RMK A01 T01680162  RH  096%=      5-min Rain = 0
KTR1 250426Z 02010KT 17/16 A2984 RMK A01 T01680162  RH  096%=      5-min Rain = 0
KTR1 250427Z 02010KT 17/16 A2985 RMK A01 T01680163  RH  096%=      5-min Rain = 0
KTR1 250428Z 02010KT 17/16 A2985 RMK A01 T01680163  RH  096%=      5-min Rain = 0.01
KTR1 250429Z 02009KT 17/16 A2985 RMK A01 T01680163  RH  096%=      5-min Rain = 0
KTR1 250430Z 02011KT 17/16 A2985 RMK A01 T01680163  RH  097%=      5-min Rain = 0
KTR1 250431Z 03011KT 17/16 A2985 RMK A01 T01680163  RH  097%=      5-min Rain = 0
KTR1 250432Z 03011KT 17/16 A2986 RMK A01 T01680163  RH  097%=      5-min Rain = 0
KTR1 250433Z 04011KT 17/16 A2986 RMK A01 T01680163  RH  097%=      5-min Rain = 0
KTR1 250434Z 04011KT 17/16 A2986 RMK A01 T01680163  RH  097%=      5-min Rain = 0
KTR1 250435Z 04011KT 17/16 A2986 RMK A01 T01680163  RH  097%=      5-min Rain = 0
KTR1 250436Z 03013KT 17/16 A2986 RMK A01 T01680163  RH  097%=      5-min Rain = 0
KTR1 250437Z 03011KT 17/16 A2987 RMK A01 T01680163  RH  097%=      5-min Rain = 0
KTR1 250438Z 03013KT 17/16 A2987 RMK A01 T01680163  RH  097%=      5-min Rain = 0.01
KTR1 250439Z 02012KT 17/16 A2987 RMK A01 T01680163  RH  097%=      5-min Rain = 0
KTR1 250440Z 03011KT 17/16 A2988 RMK A01 T01680163  RH  097%=      5-min Rain = 0
KTR1 250441Z 02011KT 17/16 A2988 RMK A01 T01680164  RH  097%=      5-min Rain = 0
KTR1 250442Z 02012KT 17/16 A2988 RMK A01 T01680164  RH  097%=      5-min Rain = 0.01
KTR1 250443Z 02012KT 17/16 A2988 RMK A01 T01680163  RH  097%=      5-min Rain = 0
KTR1 250444Z 03014G19KT 17/16 A2988 RMK A01 T01680163  RH  097%=      5-min Rain = 0.01
KTR1 250445Z 03016KT 17/16 A2988 RMK A01 T01680163  RH  097%=      5-min Rain = 0
KTR1 250446Z 03015KT 17/16 A2988 RMK A01 T01680163  RH  097%=      5-min Rain = 0.01
KTR1 250447Z 02015KT 17/16 A2988 RMK A01 T01680163  RH  097%=      5-min Rain = 0
KTR1 250448Z 03014KT 17/16 A2988 RMK A01 T01680162  RH  097%=      5-min Rain = 0.01
KTR1 250449Z 02013KT 17/16 A2988 RMK A01 T01680162  RH  097%=      5-min Rain = 0.01
KTR1 250450Z 03012G18KT 17/16 A2989 RMK A01 T01680162  RH  097%=      5-min Rain = 0.01
KTR1 250451Z 03014KT 17/16 A2989 RMK A01 T01670162  RH  097%=      5-min Rain = 0
KTR1 250452Z 03015KT 17/16 A2989 RMK A01 T01670162  RH  097%=      5-min Rain = 0.01
KTR1 250453Z 03014KT 17/16 A2989 RMK A01 T01670161  RH  096%=      5-min Rain = 0
KTR1 250454Z 03012G17KT 17/16 A2989 RMK A01 T01670161  RH  096%=      5-min Rain = 0.01
KTR1 250455Z 04014KT 17/16 A2989 RMK A01 T01660161  RH  096%=      5-min Rain = 0
KTR1 250456Z 03015KT 17/16 A2989 RMK A01 T01660161  RH  097%=      5-min Rain = 0.01
KTR1 250457Z 04014KT 17/16 A2989 RMK A01 T01660161  RH  097%=      5-min Rain = 0
KTR1 250458Z 04014KT 17/16 A2989 RMK A01 T01660161  RH  097%=      5-min Rain = 0.01
KTR1 250459Z 04015KT 17/16 A299 RMK A01 T01660161  RH  097%=      5-min Rain = 0

Page generated in 0.1467 seconds.